<?xml version="1.0" encoding="UTF-8" standalone="no" ?>
<gpx xmlns="http://www.topografix.com/GPX/1/1" xmlns:xsi="http://www.w3.org/2001/XMLSchema-instance" xsi:schemaLocation="http://www.topografix.com/GPX/1/1 http://www.topografix.com/GPX/1/1/gpx.xsd" version="1.1" creator="VisuGPX - https://www.visugpx.com">
  <metadata>
    <name>78Km-Lambersart-Auberge_Vert_Mont</name>
    <desc><![CDATA[Parcours Lambersart <>Auberge du Vert Mont. 78 Km - 400 m D+ et D-.]]></desc>
  </metadata>
  <trk>
    <name><![CDATA[78Km-Lambersart-Auberge_Vert_Mont]]></name>
    <trkseg>
      <trkpt lat="50.64973" lon="3.0364">
        <ele>22.7</ele>
        <time>2020-09-13T08:59:42Z</time>
      </trkpt>
      <trkpt lat="50.65003" lon="3.0372">
        <ele>23.4</ele>
        <time>2020-09-13T08:59:06Z</time>
      </trkpt>
      <trkpt lat="50.65041" lon="3.03807">
        <ele>22</ele>
        <time>2020-09-13T08:58:35Z</time>
      </trkpt>
      <trkpt lat="50.65062" lon="3.03858">
        <ele>20.2</ele>
      </trkpt>
      <trkpt lat="50.65081" lon="3.0391">
        <ele>20</ele>
      </trkpt>
      <trkpt lat="50.65103" lon="3.03954">
        <ele>22</ele>
        <time>2020-09-13T08:58:10Z</time>
      </trkpt>
      <trkpt lat="50.6515" lon="3.04069">
        <ele>22</ele>
        <time>2020-09-13T08:57:52Z</time>
      </trkpt>
      <trkpt lat="50.65198" lon="3.04071">
        <ele>20</ele>
      </trkpt>
      <trkpt lat="50.65236" lon="3.04019">
        <ele>23.197163</ele>
        <time>2020-09-13T08:57:32Z</time>
      </trkpt>
      <trkpt lat="50.65292" lon="3.03886">
        <ele>23.365414</ele>
        <time>2020-09-13T08:57:14Z</time>
      </trkpt>
      <trkpt lat="50.65374" lon="3.03738">
        <ele>23.049162</ele>
        <time>2020-09-13T08:56:49Z</time>
      </trkpt>
      <trkpt lat="50.65446" lon="3.03629">
        <ele>21</ele>
      </trkpt>
      <trkpt lat="50.65479" lon="3.03616">
        <ele>24.4</ele>
        <time>2020-09-13T08:56:24Z</time>
      </trkpt>
      <trkpt lat="50.65528" lon="3.03647">
        <ele>22</ele>
      </trkpt>
      <trkpt lat="50.65558" lon="3.03613">
        <ele>24.4</ele>
        <time>2020-09-13T08:56:09Z</time>
      </trkpt>
      <trkpt lat="50.65609" lon="3.03511">
        <ele>22</ele>
      </trkpt>
      <trkpt lat="50.65643" lon="3.0337">
        <ele>24.002361</ele>
        <time>2020-09-13T08:55:44Z</time>
      </trkpt>
      <trkpt lat="50.65661" lon="3.03269">
        <ele>25.2</ele>
      </trkpt>
      <trkpt lat="50.6566" lon="3.03158">
        <ele>23.3</ele>
        <time>2020-09-13T08:55:20Z</time>
      </trkpt>
      <trkpt lat="50.65708" lon="3.03129">
        <ele>24.3</ele>
        <time>2020-09-13T08:55:02Z</time>
      </trkpt>
      <trkpt lat="50.6581" lon="3.0314">
        <ele>23.352365</ele>
        <time>2020-09-13T08:54:38Z</time>
      </trkpt>
      <trkpt lat="50.65859" lon="3.0316">
        <ele>22.995571</ele>
        <time>2020-09-13T08:54:24Z</time>
      </trkpt>
      <trkpt lat="50.65939" lon="3.03235">
        <ele>23.8</ele>
        <time>2020-09-13T08:53:58Z</time>
      </trkpt>
      <trkpt lat="50.6599" lon="3.03141">
        <ele>21</ele>
      </trkpt>
      <trkpt lat="50.66041" lon="3.03064">
        <ele>22.6</ele>
        <time>2020-09-13T08:53:09Z</time>
      </trkpt>
      <trkpt lat="50.66063" lon="3.03024">
        <ele>21</ele>
      </trkpt>
      <trkpt lat="50.66179" lon="3.02873">
        <ele>25.1</ele>
        <time>2020-09-13T08:51:51Z</time>
      </trkpt>
      <trkpt lat="50.66255" lon="3.02791">
        <ele>22</ele>
      </trkpt>
      <trkpt lat="50.66304" lon="3.02767">
        <ele>22.4</ele>
      </trkpt>
      <trkpt lat="50.66318" lon="3.02846">
        <ele>22</ele>
      </trkpt>
      <trkpt lat="50.66337" lon="3.02915">
        <ele>28.8</ele>
        <time>2020-09-13T08:51:33Z</time>
      </trkpt>
      <trkpt lat="50.66384" lon="3.02975">
        <ele>23</ele>
      </trkpt>
      <trkpt lat="50.66415" lon="3.03053">
        <ele>22.9</ele>
      </trkpt>
      <trkpt lat="50.66479" lon="3.03227">
        <ele>22.4</ele>
      </trkpt>
      <trkpt lat="50.66605" lon="3.03558">
        <ele>21.5</ele>
      </trkpt>
      <trkpt lat="50.66644" lon="3.03667">
        <ele>22</ele>
      </trkpt>
      <trkpt lat="50.66686" lon="3.03764">
        <ele>22</ele>
      </trkpt>
      <trkpt lat="50.66755" lon="3.03839">
        <ele>22</ele>
      </trkpt>
      <trkpt lat="50.66859" lon="3.03961">
        <ele>21</ele>
      </trkpt>
      <trkpt lat="50.66878" lon="3.04031">
        <ele>21.1</ele>
      </trkpt>
      <trkpt lat="50.66912" lon="3.04038">
        <ele>21.1</ele>
      </trkpt>
      <trkpt lat="50.66954" lon="3.04081">
        <ele>21.6</ele>
      </trkpt>
      <trkpt lat="50.6701" lon="3.03992">
        <ele>21</ele>
      </trkpt>
      <trkpt lat="50.67082" lon="3.03904">
        <ele>18</ele>
      </trkpt>
      <trkpt lat="50.6706" lon="3.03769">
        <ele>19.1</ele>
      </trkpt>
      <trkpt lat="50.67068" lon="3.03707">
        <ele>23.7</ele>
      </trkpt>
      <trkpt lat="50.67091" lon="3.03642">
        <ele>25.4</ele>
      </trkpt>
      <trkpt lat="50.67142" lon="3.03517">
        <ele>18.7</ele>
      </trkpt>
      <trkpt lat="50.67136" lon="3.03309">
        <ele>22</ele>
      </trkpt>
      <trkpt lat="50.67147" lon="3.03093">
        <ele>19.1</ele>
      </trkpt>
      <trkpt lat="50.67173" lon="3.02887">
        <ele>20.8</ele>
      </trkpt>
      <trkpt lat="50.67104" lon="3.02623">
        <ele>22</ele>
      </trkpt>
      <trkpt lat="50.67091" lon="3.02459">
        <ele>20.3</ele>
      </trkpt>
      <trkpt lat="50.6708" lon="3.02385">
        <ele>21.1</ele>
      </trkpt>
      <trkpt lat="50.67033" lon="3.0233">
        <ele>22</ele>
      </trkpt>
      <trkpt lat="50.6724" lon="3.01993">
        <ele>20</ele>
      </trkpt>
      <trkpt lat="50.67219" lon="3.01974">
        <ele>21</ele>
      </trkpt>
      <trkpt lat="50.67195" lon="3.01958">
        <ele>21</ele>
      </trkpt>
      <trkpt lat="50.67179" lon="3.01934">
        <ele>19.3</ele>
        <time>2020-09-13T08:31:24Z</time>
      </trkpt>
      <trkpt lat="50.67188" lon="3.01823">
        <ele>21</ele>
      </trkpt>
      <trkpt lat="50.6718" lon="3.01725">
        <ele>20.522793</ele>
        <time>2020-09-13T08:31:00Z</time>
      </trkpt>
      <trkpt lat="50.67172" lon="3.01667">
        <ele>22</ele>
      </trkpt>
      <trkpt lat="50.67183" lon="3.01558">
        <ele>20.619755</ele>
        <time>2020-09-13T08:30:42Z</time>
      </trkpt>
      <trkpt lat="50.67195" lon="3.0144">
        <ele>22</ele>
      </trkpt>
      <trkpt lat="50.67191" lon="3.01326">
        <ele>20.338537</ele>
        <time>2020-09-13T08:30:18Z</time>
      </trkpt>
      <trkpt lat="50.67197" lon="3.01215">
        <ele>22</ele>
      </trkpt>
      <trkpt lat="50.67191" lon="3.01115">
        <ele>20.051016</ele>
        <time>2020-09-13T08:29:54Z</time>
      </trkpt>
      <trkpt lat="50.6719" lon="3.01096">
        <ele>22.1</ele>
      </trkpt>
      <trkpt lat="50.67235" lon="3.01081">
        <ele>20.001005</ele>
        <time>2020-09-13T08:29:40Z</time>
      </trkpt>
      <trkpt lat="50.67303" lon="3.01046">
        <ele>22</ele>
      </trkpt>
      <trkpt lat="50.67374" lon="3.01011">
        <ele>20.245832</ele>
        <time>2020-09-13T08:29:16Z</time>
      </trkpt>
      <trkpt lat="50.67445" lon="3.00992">
        <ele>22</ele>
      </trkpt>
      <trkpt lat="50.67516" lon="3.00982">
        <ele>21.246201</ele>
        <time>2020-09-13T08:28:52Z</time>
      </trkpt>
      <trkpt lat="50.67625" lon="3.00964">
        <ele>21.917843</ele>
        <time>2020-09-13T08:28:34Z</time>
      </trkpt>
      <trkpt lat="50.67722" lon="3.00946">
        <ele>24</ele>
      </trkpt>
      <trkpt lat="50.67774" lon="3.00891">
        <ele>20.9</ele>
        <time>2020-09-13T08:28:10Z</time>
      </trkpt>
      <trkpt lat="50.67748" lon="3.00778">
        <ele>22.809252</ele>
        <time>2020-09-13T08:27:56Z</time>
      </trkpt>
      <trkpt lat="50.67734" lon="3.007">
        <ele>25</ele>
      </trkpt>
      <trkpt lat="50.67715" lon="3.00622">
        <ele>24.8</ele>
      </trkpt>
      <trkpt lat="50.67712" lon="3.00547">
        <ele>24.16608</ele>
        <time>2020-09-13T08:27:32Z</time>
      </trkpt>
      <trkpt lat="50.67715" lon="3.00508">
        <ele>24.7</ele>
      </trkpt>
      <trkpt lat="50.67737" lon="3.00482">
        <ele>25</ele>
      </trkpt>
      <trkpt lat="50.67784" lon="3.00433">
        <ele>26</ele>
      </trkpt>
      <trkpt lat="50.67811" lon="3.00379">
        <ele>25.815716</ele>
        <time>2020-09-13T08:27:08Z</time>
      </trkpt>
      <trkpt lat="50.67827" lon="3.00345">
        <ele>26.8</ele>
      </trkpt>
      <trkpt lat="50.67867" lon="3.00318">
        <ele>27.2</ele>
      </trkpt>
      <trkpt lat="50.67932" lon="3.00261">
        <ele>27.261938</ele>
        <time>2020-09-13T08:26:44Z</time>
      </trkpt>
      <trkpt lat="50.67999" lon="3.00189">
        <ele>27.735968</ele>
        <time>2020-09-13T08:26:30Z</time>
      </trkpt>
      <trkpt lat="50.68105" lon="3.00049">
        <ele>27.91781</ele>
        <time>2020-09-13T08:26:06Z</time>
      </trkpt>
      <trkpt lat="50.68188" lon="2.99923">
        <ele>27.568766</ele>
        <time>2020-09-13T08:25:45Z</time>
      </trkpt>
      <trkpt lat="50.68219" lon="2.99874">
        <ele>28.5</ele>
      </trkpt>
      <trkpt lat="50.6815" lon="2.99814">
        <ele>27.366079</ele>
        <time>2020-09-13T08:25:23Z</time>
      </trkpt>
      <trkpt lat="50.68098" lon="2.99742">
        <ele>28</ele>
      </trkpt>
      <trkpt lat="50.68041" lon="2.99688">
        <ele>27.585653</ele>
        <time>2020-09-13T08:24:59Z</time>
      </trkpt>
      <trkpt lat="50.68003" lon="2.99641">
        <ele>27</ele>
      </trkpt>
      <trkpt lat="50.68016" lon="2.99617">
        <ele>27.285517</ele>
        <time>2020-09-13T08:24:43Z</time>
      </trkpt>
      <trkpt lat="50.68076" lon="2.99517">
        <ele>25.463699</ele>
        <time>2020-09-13T08:24:19Z</time>
      </trkpt>
      <trkpt lat="50.68173" lon="2.99449">
        <ele>23.459614</ele>
        <time>2020-09-13T08:23:55Z</time>
      </trkpt>
      <trkpt lat="50.68266" lon="2.99454">
        <ele>21.9163</ele>
        <time>2020-09-13T08:23:35Z</time>
      </trkpt>
      <trkpt lat="50.68356" lon="2.99545">
        <ele>20.071476</ele>
        <time>2020-09-13T08:23:11Z</time>
      </trkpt>
      <trkpt lat="50.68397" lon="2.99517">
        <ele>19.375128</ele>
        <time>2020-09-13T08:22:57Z</time>
      </trkpt>
      <trkpt lat="50.68485" lon="2.99333">
        <ele>19.282032</ele>
        <time>2020-09-13T08:22:33Z</time>
      </trkpt>
      <trkpt lat="50.68587" lon="2.9916">
        <ele>19.618351</ele>
        <time>2020-09-13T08:22:09Z</time>
      </trkpt>
      <trkpt lat="50.68655" lon="2.98951">
        <ele>19.986172</ele>
        <time>2020-09-13T08:21:44Z</time>
      </trkpt>
      <trkpt lat="50.6871" lon="2.98843">
        <ele>20.247746</ele>
        <time>2020-09-13T08:21:30Z</time>
      </trkpt>
      <trkpt lat="50.68801" lon="2.98664">
        <ele>20.078777</ele>
        <time>2020-09-13T08:21:06Z</time>
      </trkpt>
      <trkpt lat="50.68898" lon="2.98525">
        <ele>19</ele>
        <time>2020-09-13T08:20:48Z</time>
      </trkpt>
      <trkpt lat="50.68685" lon="2.98143">
        <ele>22</ele>
      </trkpt>
      <trkpt lat="50.68567" lon="2.97953">
        <ele>19.6</ele>
        <time>2020-09-13T08:20:24Z</time>
      </trkpt>
      <trkpt lat="50.68641" lon="2.97876">
        <ele>19.3</ele>
      </trkpt>
      <trkpt lat="50.68698" lon="2.97828">
        <ele>18.7</ele>
      </trkpt>
      <trkpt lat="50.6869" lon="2.97766">
        <ele>19.5</ele>
      </trkpt>
      <trkpt lat="50.68725" lon="2.97477">
        <ele>17.9</ele>
      </trkpt>
      <trkpt lat="50.68789" lon="2.97086">
        <ele>18</ele>
      </trkpt>
      <trkpt lat="50.68888" lon="2.96914">
        <ele>19</ele>
      </trkpt>
      <trkpt lat="50.68737" lon="2.96731">
        <ele>19.8</ele>
      </trkpt>
      <trkpt lat="50.69021" lon="2.96317">
        <ele>18.5</ele>
      </trkpt>
      <trkpt lat="50.69139" lon="2.9613">
        <ele>17.7</ele>
      </trkpt>
      <trkpt lat="50.69225" lon="2.96204">
        <ele>18</ele>
      </trkpt>
      <trkpt lat="50.69272" lon="2.96167">
        <ele>18</ele>
      </trkpt>
      <trkpt lat="50.69333" lon="2.96227">
        <ele>18</ele>
      </trkpt>
      <trkpt lat="50.69679" lon="2.95906">
        <ele>17.9</ele>
      </trkpt>
      <trkpt lat="50.69722" lon="2.95786">
        <ele>17.8</ele>
      </trkpt>
      <trkpt lat="50.70037" lon="2.95444">
        <ele>20</ele>
      </trkpt>
      <trkpt lat="50.70081" lon="2.95381">
        <ele>18.4</ele>
      </trkpt>
      <trkpt lat="50.70156" lon="2.95315">
        <ele>20.7</ele>
      </trkpt>
      <trkpt lat="50.70331" lon="2.95095">
        <ele>17.1</ele>
      </trkpt>
      <trkpt lat="50.70782" lon="2.94516">
        <ele>16.9</ele>
      </trkpt>
      <trkpt lat="50.71037" lon="2.94008">
        <ele>16</ele>
      </trkpt>
      <trkpt lat="50.71108" lon="2.94015">
        <ele>15.7</ele>
      </trkpt>
      <trkpt lat="50.71179" lon="2.93671">
        <ele>18</ele>
      </trkpt>
      <trkpt lat="50.71259" lon="2.93208">
        <ele>16.7</ele>
      </trkpt>
      <trkpt lat="50.71288" lon="2.92984">
        <ele>12.3</ele>
      </trkpt>
      <trkpt lat="50.71479" lon="2.9247">
        <ele>13.3</ele>
      </trkpt>
      <trkpt lat="50.71384" lon="2.92202">
        <ele>14.4</ele>
      </trkpt>
      <trkpt lat="50.71188" lon="2.91632">
        <ele>15.8</ele>
      </trkpt>
      <trkpt lat="50.71145" lon="2.91308">
        <ele>16</ele>
      </trkpt>
      <trkpt lat="50.71167" lon="2.9131">
        <ele>16.3</ele>
      </trkpt>
      <trkpt lat="50.71208" lon="2.91349">
        <ele>17</ele>
      </trkpt>
      <trkpt lat="50.71224" lon="2.9132">
        <ele>17.3</ele>
      </trkpt>
      <trkpt lat="50.71337" lon="2.91418">
        <ele>16.1</ele>
      </trkpt>
      <trkpt lat="50.71435" lon="2.91382">
        <ele>16.9</ele>
      </trkpt>
      <trkpt lat="50.71805" lon="2.91333">
        <ele>16</ele>
      </trkpt>
      <trkpt lat="50.72252" lon="2.91269">
        <ele>16</ele>
      </trkpt>
      <trkpt lat="50.7239" lon="2.91287">
        <ele>16.1</ele>
      </trkpt>
      <trkpt lat="50.7267" lon="2.91368">
        <ele>17</ele>
      </trkpt>
      <trkpt lat="50.72707" lon="2.91391">
        <ele>16.5</ele>
      </trkpt>
      <trkpt lat="50.72932" lon="2.91255">
        <ele>17.2</ele>
      </trkpt>
      <trkpt lat="50.73028" lon="2.9123">
        <ele>18</ele>
      </trkpt>
      <trkpt lat="50.73199" lon="2.91211">
        <ele>17.6</ele>
      </trkpt>
      <trkpt lat="50.73291" lon="2.91133">
        <ele>18.5</ele>
      </trkpt>
      <trkpt lat="50.73377" lon="2.91076">
        <ele>21.2</ele>
      </trkpt>
      <trkpt lat="50.7355" lon="2.90936">
        <ele>23.2</ele>
      </trkpt>
      <trkpt lat="50.73668" lon="2.9089">
        <ele>25.9</ele>
      </trkpt>
      <trkpt lat="50.7369" lon="2.90919">
        <ele>23.3</ele>
      </trkpt>
      <trkpt lat="50.73793" lon="2.90873">
        <ele>24.1</ele>
      </trkpt>
      <trkpt lat="50.74033" lon="2.90772">
        <ele>21</ele>
      </trkpt>
      <trkpt lat="50.7414" lon="2.90795">
        <ele>18.8</ele>
      </trkpt>
      <trkpt lat="50.74228" lon="2.90763">
        <ele>22</ele>
      </trkpt>
      <trkpt lat="50.74256" lon="2.90747">
        <ele>23.4</ele>
      </trkpt>
      <trkpt lat="50.74291" lon="2.90982">
        <ele>24.2</ele>
      </trkpt>
      <trkpt lat="50.74824" lon="2.90825">
        <ele>28</ele>
      </trkpt>
      <trkpt lat="50.74894" lon="2.91106">
        <ele>26.6</ele>
      </trkpt>
      <trkpt lat="50.75007" lon="2.91428">
        <ele>24</ele>
      </trkpt>
      <trkpt lat="50.75054" lon="2.91667">
        <ele>24.7</ele>
      </trkpt>
      <trkpt lat="50.75548" lon="2.91331">
        <ele>20</ele>
      </trkpt>
      <trkpt lat="50.75959" lon="2.90913">
        <ele>26</ele>
      </trkpt>
      <trkpt lat="50.76116" lon="2.90761">
        <ele>30.7</ele>
      </trkpt>
      <trkpt lat="50.76222" lon="2.90553">
        <ele>36.3</ele>
        <time>2020-09-13T07:34:37Z</time>
      </trkpt>
      <trkpt lat="50.76261" lon="2.90478">
        <ele>42.3</ele>
      </trkpt>
      <trkpt lat="50.76314" lon="2.90372">
        <ele>46.1</ele>
      </trkpt>
      <trkpt lat="50.76332" lon="2.90232">
        <ele>50.6</ele>
      </trkpt>
      <trkpt lat="50.76358" lon="2.9013">
        <ele>58.215656</ele>
        <time>2020-09-13T07:34:15Z</time>
      </trkpt>
      <trkpt lat="50.76461" lon="2.90029">
        <ele>58.656719</ele>
        <time>2020-09-13T07:33:55Z</time>
      </trkpt>
      <trkpt lat="50.76457" lon="2.89969">
        <ele>58.645287</ele>
        <time>2020-09-13T07:33:35Z</time>
      </trkpt>
      <trkpt lat="50.76435" lon="2.89912">
        <ele>60.325798</ele>
        <time>2020-09-13T07:33:11Z</time>
      </trkpt>
      <trkpt lat="50.76405" lon="2.89867">
        <ele>62.51997</ele>
        <time>2020-09-13T07:32:47Z</time>
      </trkpt>
      <trkpt lat="50.76378" lon="2.89763">
        <ele>57.5</ele>
        <time>2020-09-13T07:32:23Z</time>
      </trkpt>
      <trkpt lat="50.76349" lon="2.89657">
        <ele>56.8</ele>
        <time>2020-09-13T07:31:59Z</time>
      </trkpt>
      <trkpt lat="50.76342" lon="2.89559">
        <ele>57.6</ele>
        <time>2020-09-13T07:31:45Z</time>
      </trkpt>
      <trkpt lat="50.76357" lon="2.89302">
        <ele>57.8</ele>
        <time>2020-09-13T07:31:21Z</time>
      </trkpt>
      <trkpt lat="50.76501" lon="2.89216">
        <ele>59</ele>
        <time>2020-09-13T07:31:03Z</time>
      </trkpt>
      <trkpt lat="50.76539" lon="2.89227">
        <ele>59</ele>
        <time>2020-09-13T07:30:39Z</time>
      </trkpt>
      <trkpt lat="50.76557" lon="2.8921">
        <ele>56.235107</ele>
        <time>2020-09-13T07:30:25Z</time>
      </trkpt>
      <trkpt lat="50.7654" lon="2.89065">
        <ele>51.947926</ele>
        <time>2020-09-13T07:30:01Z</time>
      </trkpt>
      <trkpt lat="50.76582" lon="2.88951">
        <ele>47.052673</ele>
        <time>2020-09-13T07:29:37Z</time>
      </trkpt>
      <trkpt lat="50.76622" lon="2.88836">
        <ele>43.615166</ele>
        <time>2020-09-13T07:29:13Z</time>
      </trkpt>
      <trkpt lat="50.76654" lon="2.88756">
        <ele>41.204849</ele>
        <time>2020-09-13T07:28:55Z</time>
      </trkpt>
      <trkpt lat="50.7671" lon="2.88696">
        <ele>37.949814</ele>
        <time>2020-09-13T07:28:35Z</time>
      </trkpt>
      <trkpt lat="50.76774" lon="2.88634">
        <ele>35.667686</ele>
        <time>2020-09-13T07:28:17Z</time>
      </trkpt>
      <trkpt lat="50.76799" lon="2.88587">
        <ele>41.8</ele>
      </trkpt>
      <trkpt lat="50.76817" lon="2.88448">
        <ele>34.49691</ele>
        <time>2020-09-13T07:27:53Z</time>
      </trkpt>
      <trkpt lat="50.76837" lon="2.88353">
        <ele>39.8</ele>
      </trkpt>
      <trkpt lat="50.76865" lon="2.88267">
        <ele>34.839104</ele>
        <time>2020-09-13T07:27:29Z</time>
      </trkpt>
      <trkpt lat="50.76927" lon="2.88134">
        <ele>32.9</ele>
        <time>2020-09-13T07:27:05Z</time>
      </trkpt>
      <trkpt lat="50.76964" lon="2.87964">
        <ele>40.758888</ele>
        <time>2020-09-13T07:26:51Z</time>
      </trkpt>
      <trkpt lat="50.7697" lon="2.87879">
        <ele>36.3</ele>
      </trkpt>
      <trkpt lat="50.76963" lon="2.87752">
        <ele>39.3</ele>
      </trkpt>
      <trkpt lat="50.76973" lon="2.87689">
        <ele>45.188637</ele>
        <time>2020-09-13T07:26:27Z</time>
      </trkpt>
      <trkpt lat="50.77036" lon="2.87487">
        <ele>48.683983</ele>
        <time>2020-09-13T07:26:07Z</time>
      </trkpt>
      <trkpt lat="50.77064" lon="2.87381">
        <ele>48</ele>
      </trkpt>
      <trkpt lat="50.77077" lon="2.87283">
        <ele>44.2</ele>
        <time>2020-09-13T07:25:43Z</time>
      </trkpt>
      <trkpt lat="50.77129" lon="2.87125">
        <ele>55.794044</ele>
        <time>2020-09-13T07:25:29Z</time>
      </trkpt>
      <trkpt lat="50.77161" lon="2.86992">
        <ele>51.3</ele>
      </trkpt>
      <trkpt lat="50.77215" lon="2.86913">
        <ele>60.660992</ele>
        <time>2020-09-13T07:25:05Z</time>
      </trkpt>
      <trkpt lat="50.77257" lon="2.8682">
        <ele>56.6</ele>
      </trkpt>
      <trkpt lat="50.77328" lon="2.86708">
        <ele>57.9</ele>
        <time>2020-09-13T07:24:41Z</time>
      </trkpt>
      <trkpt lat="50.77343" lon="2.8663">
        <ele>63</ele>
      </trkpt>
      <trkpt lat="50.77346" lon="2.86565">
        <ele>64.3</ele>
      </trkpt>
      <trkpt lat="50.7738" lon="2.8648">
        <ele>67.484917</ele>
        <time>2020-09-13T07:24:19Z</time>
      </trkpt>
      <trkpt lat="50.77423" lon="2.8638">
        <ele>69.7</ele>
      </trkpt>
      <trkpt lat="50.77475" lon="2.86316">
        <ele>67.767189</ele>
        <time>2020-09-13T07:23:59Z</time>
      </trkpt>
      <trkpt lat="50.7753" lon="2.86264">
        <ele>74.1</ele>
      </trkpt>
      <trkpt lat="50.77542" lon="2.86184">
        <ele>67.540176</ele>
        <time>2020-09-13T07:23:41Z</time>
      </trkpt>
      <trkpt lat="50.77562" lon="2.86122">
        <ele>74.3</ele>
      </trkpt>
      <trkpt lat="50.77606" lon="2.86057">
        <ele>68.094711</ele>
        <time>2020-09-13T07:23:21Z</time>
      </trkpt>
      <trkpt lat="50.77635" lon="2.85939">
        <ele>72.7</ele>
      </trkpt>
      <trkpt lat="50.77661" lon="2.85875">
        <ele>68.5149</ele>
        <time>2020-09-13T07:22:57Z</time>
      </trkpt>
      <trkpt lat="50.77705" lon="2.85849">
        <ele>72.6</ele>
      </trkpt>
      <trkpt lat="50.77766" lon="2.85844">
        <ele>68.459297</ele>
        <time>2020-09-13T07:22:33Z</time>
      </trkpt>
      <trkpt lat="50.77839" lon="2.85823">
        <ele>68.8</ele>
      </trkpt>
      <trkpt lat="50.7784" lon="2.85761">
        <ele>68.622032</ele>
        <time>2020-09-13T07:22:09Z</time>
      </trkpt>
      <trkpt lat="50.7784" lon="2.85637">
        <ele>67.744858</ele>
        <time>2020-09-13T07:21:55Z</time>
      </trkpt>
      <trkpt lat="50.77802" lon="2.85451">
        <ele>65.106339</ele>
        <time>2020-09-13T07:21:31Z</time>
      </trkpt>
      <trkpt lat="50.77789" lon="2.8537">
        <ele>72.6</ele>
      </trkpt>
      <trkpt lat="50.77782" lon="2.85295">
        <ele>63.274647</ele>
        <time>2020-09-13T07:21:13Z</time>
      </trkpt>
      <trkpt lat="50.7778" lon="2.85095">
        <ele>61.683441</ele>
        <time>2020-09-13T07:20:49Z</time>
      </trkpt>
      <trkpt lat="50.77748" lon="2.84895">
        <ele>60.961708</ele>
        <time>2020-09-13T07:20:25Z</time>
      </trkpt>
      <trkpt lat="50.77721" lon="2.84775">
        <ele>61.205505</ele>
        <time>2020-09-13T07:20:11Z</time>
      </trkpt>
      <trkpt lat="50.77669" lon="2.8456">
        <ele>62.510704</ele>
        <time>2020-09-13T07:19:47Z</time>
      </trkpt>
      <trkpt lat="50.7761" lon="2.84332">
        <ele>64.665382</ele>
        <time>2020-09-13T07:19:23Z</time>
      </trkpt>
      <trkpt lat="50.77566" lon="2.84159">
        <ele>66.294388</ele>
        <time>2020-09-13T07:19:05Z</time>
      </trkpt>
      <trkpt lat="50.77554" lon="2.84048">
        <ele>67</ele>
      </trkpt>
      <trkpt lat="50.77553" lon="2.83953">
        <ele>67.549286</ele>
        <time>2020-09-13T07:18:45Z</time>
      </trkpt>
      <trkpt lat="50.77546" lon="2.83755">
        <ele>68.963104</ele>
        <time>2020-09-13T07:18:26Z</time>
      </trkpt>
      <trkpt lat="50.77532" lon="2.83644">
        <ele>70</ele>
      </trkpt>
      <trkpt lat="50.77543" lon="2.83514">
        <ele>72.289917</ele>
        <time>2020-09-13T07:18:02Z</time>
      </trkpt>
      <trkpt lat="50.77564" lon="2.83272">
        <ele>74.083855</ele>
        <time>2020-09-13T07:17:38Z</time>
      </trkpt>
      <trkpt lat="50.77578" lon="2.8302">
        <ele>74.571434</ele>
        <time>2020-09-13T07:17:14Z</time>
      </trkpt>
      <trkpt lat="50.7758" lon="2.82877">
        <ele>75.23967</ele>
        <time>2020-09-13T07:17:00Z</time>
      </trkpt>
      <trkpt lat="50.77582" lon="2.82767">
        <ele>77.6</ele>
      </trkpt>
      <trkpt lat="50.77587" lon="2.82727">
        <ele>77.8</ele>
      </trkpt>
      <trkpt lat="50.77586" lon="2.82651">
        <ele>79.1</ele>
      </trkpt>
      <trkpt lat="50.77608" lon="2.82553">
        <ele>80.1</ele>
      </trkpt>
      <trkpt lat="50.77627" lon="2.82437">
        <ele>82.6</ele>
      </trkpt>
      <trkpt lat="50.77648" lon="2.82326">
        <ele>83.8</ele>
      </trkpt>
      <trkpt lat="50.77658" lon="2.82201">
        <ele>86.2</ele>
      </trkpt>
      <trkpt lat="50.77708" lon="2.8201">
        <ele>86.7</ele>
      </trkpt>
      <trkpt lat="50.77706" lon="2.8192">
        <ele>98</ele>
      </trkpt>
      <trkpt lat="50.77673" lon="2.81864">
        <ele>98.6</ele>
      </trkpt>
      <trkpt lat="50.77683" lon="2.81819">
        <ele>100.6</ele>
      </trkpt>
      <trkpt lat="50.77699" lon="2.81834">
        <ele>101.5</ele>
      </trkpt>
      <trkpt lat="50.77748" lon="2.81776">
        <ele>109.8</ele>
      </trkpt>
      <trkpt lat="50.77786" lon="2.81748">
        <ele>116.6</ele>
      </trkpt>
      <trkpt lat="50.77864" lon="2.81737">
        <ele>127.6</ele>
      </trkpt>
      <trkpt lat="50.77925" lon="2.81716">
        <ele>134.1</ele>
      </trkpt>
      <trkpt lat="50.77951" lon="2.81651">
        <ele>136.9</ele>
      </trkpt>
      <trkpt lat="50.77954" lon="2.81596">
        <ele>143.5</ele>
      </trkpt>
      <trkpt lat="50.77925" lon="2.81458">
        <ele>150.7</ele>
      </trkpt>
      <trkpt lat="50.77881" lon="2.81246">
        <ele>150.7</ele>
      </trkpt>
      <trkpt lat="50.77816" lon="2.81035">
        <ele>149</ele>
      </trkpt>
      <trkpt lat="50.77843" lon="2.80935">
        <ele>138.9</ele>
      </trkpt>
      <trkpt lat="50.77877" lon="2.80832">
        <ele>128.3</ele>
      </trkpt>
      <trkpt lat="50.77921" lon="2.80793">
        <ele>117.3</ele>
      </trkpt>
      <trkpt lat="50.77965" lon="2.80718">
        <ele>109.2</ele>
      </trkpt>
      <trkpt lat="50.77973" lon="2.80516">
        <ele>96.6</ele>
      </trkpt>
      <trkpt lat="50.77997" lon="2.80317">
        <ele>89.1</ele>
      </trkpt>
      <trkpt lat="50.78037" lon="2.80195">
        <ele>85</ele>
      </trkpt>
      <trkpt lat="50.78057" lon="2.80091">
        <ele>81.2</ele>
      </trkpt>
      <trkpt lat="50.78208" lon="2.79607">
        <ele>73.6</ele>
      </trkpt>
      <trkpt lat="50.78343" lon="2.79227">
        <ele>73.5</ele>
      </trkpt>
      <trkpt lat="50.78422" lon="2.79059">
        <ele>74.7</ele>
      </trkpt>
      <trkpt lat="50.78508" lon="2.78924">
        <ele>71.8</ele>
      </trkpt>
      <trkpt lat="50.78571" lon="2.78772">
        <ele>71.7</ele>
      </trkpt>
      <trkpt lat="50.78619" lon="2.78705">
        <ele>73.7</ele>
      </trkpt>
      <trkpt lat="50.78654" lon="2.78632">
        <ele>73.9</ele>
      </trkpt>
      <trkpt lat="50.78765" lon="2.78366">
        <ele>77.3</ele>
      </trkpt>
      <trkpt lat="50.78791" lon="2.7824">
        <ele>79.5</ele>
      </trkpt>
      <trkpt lat="50.78799" lon="2.78089">
        <ele>79.5</ele>
      </trkpt>
      <trkpt lat="50.78841" lon="2.78004">
        <ele>79.8</ele>
      </trkpt>
      <trkpt lat="50.78891" lon="2.7777">
        <ele>83.4</ele>
      </trkpt>
      <trkpt lat="50.78934" lon="2.77674">
        <ele>82.6</ele>
      </trkpt>
      <trkpt lat="50.78906" lon="2.7763">
        <ele>89.8</ele>
      </trkpt>
      <trkpt lat="50.78886" lon="2.77576">
        <ele>90.9</ele>
      </trkpt>
      <trkpt lat="50.78855" lon="2.77446">
        <ele>93.5</ele>
      </trkpt>
      <trkpt lat="50.78803" lon="2.77323">
        <ele>89.8</ele>
      </trkpt>
      <trkpt lat="50.78775" lon="2.77197">
        <ele>89.9</ele>
      </trkpt>
      <trkpt lat="50.78706" lon="2.77117">
        <ele>89</ele>
      </trkpt>
      <trkpt lat="50.78677" lon="2.77102">
        <ele>89</ele>
      </trkpt>
      <trkpt lat="50.78669" lon="2.77077">
        <ele>89</ele>
      </trkpt>
      <trkpt lat="50.78691" lon="2.77036">
        <ele>89.5</ele>
      </trkpt>
      <trkpt lat="50.78704" lon="2.76974">
        <ele>91.3</ele>
      </trkpt>
      <trkpt lat="50.78744" lon="2.7695">
        <ele>96.2</ele>
      </trkpt>
      <trkpt lat="50.78765" lon="2.76935">
        <ele>97.2</ele>
      </trkpt>
      <trkpt lat="50.78811" lon="2.76875">
        <ele>96.8</ele>
      </trkpt>
      <trkpt lat="50.78807" lon="2.76793">
        <ele>93.4</ele>
      </trkpt>
      <trkpt lat="50.78841" lon="2.76688">
        <ele>87.1</ele>
      </trkpt>
      <trkpt lat="50.78905" lon="2.76673">
        <ele>86.6</ele>
      </trkpt>
      <trkpt lat="50.7899" lon="2.76607">
        <ele>89.1</ele>
      </trkpt>
      <trkpt lat="50.79042" lon="2.76469">
        <ele>88.6</ele>
      </trkpt>
      <trkpt lat="50.79085" lon="2.76341">
        <ele>86.6</ele>
      </trkpt>
      <trkpt lat="50.79092" lon="2.76277">
        <ele>88.5</ele>
      </trkpt>
      <trkpt lat="50.79081" lon="2.76244">
        <ele>82.1</ele>
      </trkpt>
      <trkpt lat="50.79041" lon="2.76209">
        <ele>80.1</ele>
      </trkpt>
      <trkpt lat="50.79039" lon="2.76165">
        <ele>78.5</ele>
      </trkpt>
      <trkpt lat="50.79066" lon="2.76104">
        <ele>80</ele>
      </trkpt>
      <trkpt lat="50.79101" lon="2.76046">
        <ele>81.8</ele>
      </trkpt>
      <trkpt lat="50.79134" lon="2.75992">
        <ele>82.3</ele>
      </trkpt>
      <trkpt lat="50.79171" lon="2.75939">
        <ele>80</ele>
      </trkpt>
      <trkpt lat="50.79261" lon="2.75836">
        <ele>74.2</ele>
      </trkpt>
      <trkpt lat="50.79303" lon="2.7579">
        <ele>70.3</ele>
      </trkpt>
      <trkpt lat="50.7934" lon="2.75748">
        <ele>67.6</ele>
      </trkpt>
      <trkpt lat="50.79372" lon="2.75712">
        <ele>65.9</ele>
      </trkpt>
      <trkpt lat="50.7946" lon="2.75517">
        <ele>59.1</ele>
      </trkpt>
      <trkpt lat="50.79506" lon="2.75381">
        <ele>52.7</ele>
      </trkpt>
      <trkpt lat="50.79545" lon="2.75282">
        <ele>53.5</ele>
      </trkpt>
      <trkpt lat="50.79587" lon="2.75179">
        <ele>49.9</ele>
      </trkpt>
      <trkpt lat="50.79621" lon="2.75065">
        <ele>45.7</ele>
      </trkpt>
      <trkpt lat="50.79658" lon="2.75004">
        <ele>47.8</ele>
      </trkpt>
      <trkpt lat="50.79707" lon="2.74879">
        <ele>49.8</ele>
      </trkpt>
      <trkpt lat="50.7974" lon="2.74856">
        <ele>48.4</ele>
      </trkpt>
      <trkpt lat="50.7976" lon="2.7475">
        <ele>47.6</ele>
      </trkpt>
      <trkpt lat="50.79713" lon="2.7465">
        <ele>47.9</ele>
      </trkpt>
      <trkpt lat="50.79847" lon="2.74528">
        <ele>44.1</ele>
      </trkpt>
      <trkpt lat="50.79792" lon="2.74436">
        <ele>44.8</ele>
      </trkpt>
      <trkpt lat="50.79771" lon="2.74396">
        <ele>44.6</ele>
      </trkpt>
      <trkpt lat="50.79763" lon="2.74354">
        <ele>45.5</ele>
      </trkpt>
      <trkpt lat="50.79791" lon="2.74304">
        <ele>47.5</ele>
      </trkpt>
      <trkpt lat="50.79811" lon="2.74253">
        <ele>46.4</ele>
      </trkpt>
      <trkpt lat="50.7979" lon="2.74185">
        <ele>51</ele>
      </trkpt>
      <trkpt lat="50.80086" lon="2.73691">
        <ele>58.4</ele>
      </trkpt>
      <trkpt lat="50.79985" lon="2.73495">
        <ele>64.1</ele>
      </trkpt>
      <trkpt lat="50.79867" lon="2.73308">
        <ele>68.2</ele>
      </trkpt>
      <trkpt lat="50.7984" lon="2.73228">
        <ele>70.9</ele>
      </trkpt>
      <trkpt lat="50.7978" lon="2.73073">
        <ele>76</ele>
      </trkpt>
      <trkpt lat="50.79742" lon="2.73012">
        <ele>78.6</ele>
      </trkpt>
      <trkpt lat="50.79678" lon="2.72827">
        <ele>78.9</ele>
      </trkpt>
      <trkpt lat="50.7965" lon="2.7265">
        <ele>77.4</ele>
      </trkpt>
      <trkpt lat="50.79607" lon="2.72465">
        <ele>70.6</ele>
      </trkpt>
      <trkpt lat="50.79561" lon="2.72262">
        <ele>77.2</ele>
      </trkpt>
      <trkpt lat="50.79556" lon="2.72143">
        <ele>77.9</ele>
      </trkpt>
      <trkpt lat="50.79515" lon="2.7204">
        <ele>78.1</ele>
      </trkpt>
      <trkpt lat="50.79431" lon="2.71926">
        <ele>78.2</ele>
      </trkpt>
      <trkpt lat="50.79396" lon="2.71794">
        <ele>80.1</ele>
      </trkpt>
      <trkpt lat="50.79364" lon="2.71635">
        <ele>81.2</ele>
      </trkpt>
      <trkpt lat="50.79319" lon="2.71474">
        <ele>80.4</ele>
      </trkpt>
      <trkpt lat="50.79277" lon="2.71358">
        <ele>85</ele>
      </trkpt>
      <trkpt lat="50.79221" lon="2.71242">
        <ele>87.3</ele>
      </trkpt>
      <trkpt lat="50.79145" lon="2.7111">
        <ele>89.3</ele>
      </trkpt>
      <trkpt lat="50.79181" lon="2.71096">
        <ele>90.8</ele>
      </trkpt>
      <trkpt lat="50.79231" lon="2.71049">
        <ele>91.3</ele>
      </trkpt>
      <trkpt lat="50.79311" lon="2.71049">
        <ele>90.8</ele>
      </trkpt>
      <trkpt lat="50.79458" lon="2.71086">
        <ele>87.6</ele>
      </trkpt>
      <trkpt lat="50.79635" lon="2.71075">
        <ele>82</ele>
      </trkpt>
      <trkpt lat="50.79782" lon="2.71024">
        <ele>75.2</ele>
      </trkpt>
      <trkpt lat="50.79804" lon="2.7099">
        <ele>75.2</ele>
      </trkpt>
      <trkpt lat="50.79831" lon="2.70964">
        <ele>74.4</ele>
      </trkpt>
      <trkpt lat="50.79832" lon="2.70947">
        <ele>73.1</ele>
      </trkpt>
      <trkpt lat="50.79818" lon="2.70896">
        <ele>70.2</ele>
      </trkpt>
      <trkpt lat="50.79813" lon="2.70837">
        <ele>66.7</ele>
      </trkpt>
      <trkpt lat="50.79815" lon="2.70822">
        <ele>65.8</ele>
      </trkpt>
      <trkpt lat="50.79837" lon="2.70746">
        <ele>63.9</ele>
      </trkpt>
      <trkpt lat="50.79839" lon="2.70723">
        <ele>63</ele>
      </trkpt>
      <trkpt lat="50.79794" lon="2.70644">
        <ele>65.6</ele>
      </trkpt>
      <trkpt lat="50.7978" lon="2.70568">
        <ele>67.4</ele>
      </trkpt>
      <trkpt lat="50.7977" lon="2.70485">
        <ele>69</ele>
      </trkpt>
      <trkpt lat="50.79758" lon="2.70414">
        <ele>70.7</ele>
      </trkpt>
      <trkpt lat="50.79717" lon="2.70317">
        <ele>73.6</ele>
      </trkpt>
      <trkpt lat="50.79692" lon="2.70262">
        <ele>75.2</ele>
      </trkpt>
      <trkpt lat="50.79675" lon="2.70221">
        <ele>74.4</ele>
      </trkpt>
      <trkpt lat="50.79585" lon="2.70277">
        <ele>81.9</ele>
      </trkpt>
      <trkpt lat="50.79514" lon="2.70393">
        <ele>86.4</ele>
      </trkpt>
      <trkpt lat="50.795" lon="2.70411">
        <ele>87.2</ele>
      </trkpt>
      <trkpt lat="50.79474" lon="2.70433">
        <ele>89.2</ele>
      </trkpt>
      <trkpt lat="50.79437" lon="2.70447">
        <ele>91.6</ele>
      </trkpt>
      <trkpt lat="50.79394" lon="2.70459">
        <ele>95.5</ele>
      </trkpt>
      <trkpt lat="50.79353" lon="2.70483">
        <ele>98.4</ele>
      </trkpt>
      <trkpt lat="50.79321" lon="2.70482">
        <ele>100.9</ele>
      </trkpt>
      <trkpt lat="50.79292" lon="2.70473">
        <ele>99.8</ele>
        <time>2020-09-13T07:00:48Z</time>
      </trkpt>
      <trkpt lat="50.79251" lon="2.70468">
        <ele>101.3</ele>
      </trkpt>
      <trkpt lat="50.79224" lon="2.70471">
        <ele>102.5</ele>
      </trkpt>
      <trkpt lat="50.79185" lon="2.705">
        <ele>101.4</ele>
      </trkpt>
      <trkpt lat="50.79147" lon="2.70538">
        <ele>102</ele>
      </trkpt>
      <trkpt lat="50.7907" lon="2.70622">
        <ele>100.9</ele>
      </trkpt>
      <trkpt lat="50.79054" lon="2.70628">
        <ele>93.9</ele>
      </trkpt>
      <trkpt lat="50.79052" lon="2.7071">
        <ele>91.6</ele>
      </trkpt>
      <trkpt lat="50.79065" lon="2.70787">
        <ele>96.6</ele>
      </trkpt>
      <trkpt lat="50.79075" lon="2.70855">
        <ele>95.3</ele>
      </trkpt>
      <trkpt lat="50.78915" lon="2.71011">
        <ele>82.1</ele>
      </trkpt>
      <trkpt lat="50.78753" lon="2.71114">
        <ele>87.1</ele>
      </trkpt>
      <trkpt lat="50.78718" lon="2.7116">
        <ele>89.1</ele>
      </trkpt>
      <trkpt lat="50.78702" lon="2.71193">
        <ele>81.2</ele>
      </trkpt>
      <trkpt lat="50.78677" lon="2.7124">
        <ele>91.4</ele>
      </trkpt>
      <trkpt lat="50.78652" lon="2.71277">
        <ele>81.5</ele>
      </trkpt>
      <trkpt lat="50.78581" lon="2.7134">
        <ele>79.7</ele>
      </trkpt>
      <trkpt lat="50.78532" lon="2.71385">
        <ele>85.5</ele>
      </trkpt>
      <trkpt lat="50.78486" lon="2.71441">
        <ele>69.9</ele>
      </trkpt>
      <trkpt lat="50.78423" lon="2.71592">
        <ele>66.6</ele>
      </trkpt>
      <trkpt lat="50.78423" lon="2.71624">
        <ele>75.2</ele>
      </trkpt>
      <trkpt lat="50.7845" lon="2.71733">
        <ele>78.5</ele>
      </trkpt>
      <trkpt lat="50.78474" lon="2.71841">
        <ele>80.3</ele>
      </trkpt>
      <trkpt lat="50.78458" lon="2.71884">
        <ele>82.8</ele>
      </trkpt>
      <trkpt lat="50.78436" lon="2.71924">
        <ele>83.5</ele>
      </trkpt>
      <trkpt lat="50.78406" lon="2.71972">
        <ele>86.4</ele>
      </trkpt>
      <trkpt lat="50.78365" lon="2.72025">
        <ele>94.3</ele>
      </trkpt>
      <trkpt lat="50.78326" lon="2.72087">
        <ele>94</ele>
      </trkpt>
      <trkpt lat="50.78287" lon="2.72155">
        <ele>101.1</ele>
      </trkpt>
      <trkpt lat="50.7829" lon="2.72198">
        <ele>105.1</ele>
      </trkpt>
      <trkpt lat="50.78212" lon="2.72306">
        <ele>113.4</ele>
      </trkpt>
      <trkpt lat="50.78137" lon="2.72397">
        <ele>116.4</ele>
      </trkpt>
      <trkpt lat="50.78109" lon="2.72438">
        <ele>123</ele>
      </trkpt>
      <trkpt lat="50.78079" lon="2.7249">
        <ele>125.7</ele>
      </trkpt>
      <trkpt lat="50.78065" lon="2.72522">
        <ele>126.8</ele>
      </trkpt>
      <trkpt lat="50.78054" lon="2.72561">
        <ele>117.8</ele>
      </trkpt>
      <trkpt lat="50.78042" lon="2.72604">
        <ele>128.9</ele>
      </trkpt>
      <trkpt lat="50.78035" lon="2.72618">
        <ele>129.5</ele>
      </trkpt>
      <trkpt lat="50.78022" lon="2.72772">
        <ele>118.1</ele>
      </trkpt>
      <trkpt lat="50.78015" lon="2.72859">
        <ele>131.2</ele>
      </trkpt>
      <trkpt lat="50.78019" lon="2.72953">
        <ele>120.4</ele>
      </trkpt>
      <trkpt lat="50.78004" lon="2.72993">
        <ele>133.2</ele>
      </trkpt>
      <trkpt lat="50.77993" lon="2.7303">
        <ele>134.2</ele>
      </trkpt>
      <trkpt lat="50.7797" lon="2.7307">
        <ele>134.4</ele>
      </trkpt>
      <trkpt lat="50.77945" lon="2.73131">
        <ele>135</ele>
      </trkpt>
      <trkpt lat="50.77936" lon="2.73168">
        <ele>139.3</ele>
      </trkpt>
      <trkpt lat="50.77907" lon="2.73207">
        <ele>141.8</ele>
      </trkpt>
      <trkpt lat="50.77887" lon="2.73265">
        <ele>144.3</ele>
      </trkpt>
      <trkpt lat="50.77857" lon="2.73337">
        <ele>145.7</ele>
      </trkpt>
      <trkpt lat="50.77846" lon="2.73366">
        <ele>146</ele>
      </trkpt>
      <trkpt lat="50.77842" lon="2.73399">
        <ele>146.4</ele>
      </trkpt>
      <trkpt lat="50.77831" lon="2.73431">
        <ele>129.9</ele>
      </trkpt>
      <trkpt lat="50.77816" lon="2.73471">
        <ele>143.2</ele>
      </trkpt>
      <trkpt lat="50.77797" lon="2.73512">
        <ele>124.6</ele>
      </trkpt>
      <trkpt lat="50.77763" lon="2.73557">
        <ele>131</ele>
      </trkpt>
      <trkpt lat="50.77699" lon="2.73603">
        <ele>109.6</ele>
      </trkpt>
      <trkpt lat="50.77685" lon="2.73628">
        <ele>116.1</ele>
      </trkpt>
      <trkpt lat="50.77674" lon="2.73654">
        <ele>109.1</ele>
      </trkpt>
      <trkpt lat="50.77674" lon="2.73714">
        <ele>108.8</ele>
      </trkpt>
      <trkpt lat="50.77665" lon="2.7376">
        <ele>110</ele>
      </trkpt>
      <trkpt lat="50.77662" lon="2.73828">
        <ele>105.9</ele>
      </trkpt>
      <trkpt lat="50.7765" lon="2.7384">
        <ele>106.5</ele>
      </trkpt>
      <trkpt lat="50.77632" lon="2.73882">
        <ele>105.2</ele>
      </trkpt>
      <trkpt lat="50.77616" lon="2.73961">
        <ele>104.5</ele>
      </trkpt>
      <trkpt lat="50.77598" lon="2.74026">
        <ele>103</ele>
      </trkpt>
      <trkpt lat="50.77565" lon="2.74106">
        <ele>98.7</ele>
      </trkpt>
      <trkpt lat="50.77504" lon="2.74205">
        <ele>94.7</ele>
      </trkpt>
      <trkpt lat="50.77464" lon="2.74278">
        <ele>89.4</ele>
      </trkpt>
      <trkpt lat="50.77423" lon="2.74329">
        <ele>88.1</ele>
      </trkpt>
      <trkpt lat="50.77367" lon="2.74389">
        <ele>89</ele>
      </trkpt>
      <trkpt lat="50.77294" lon="2.7447">
        <ele>88.5</ele>
      </trkpt>
      <trkpt lat="50.77253" lon="2.74523">
        <ele>88.1</ele>
      </trkpt>
      <trkpt lat="50.77235" lon="2.74562">
        <ele>87.8</ele>
      </trkpt>
      <trkpt lat="50.77204" lon="2.7462">
        <ele>86.7</ele>
      </trkpt>
      <trkpt lat="50.77169" lon="2.74653">
        <ele>85.1</ele>
      </trkpt>
      <trkpt lat="50.77144" lon="2.74668">
        <ele>84.2</ele>
      </trkpt>
      <trkpt lat="50.77139" lon="2.74692">
        <ele>77.1</ele>
      </trkpt>
      <trkpt lat="50.77151" lon="2.74814">
        <ele>83.4</ele>
      </trkpt>
      <trkpt lat="50.77157" lon="2.74857">
        <ele>83.1</ele>
      </trkpt>
      <trkpt lat="50.77159" lon="2.75029">
        <ele>80.2</ele>
      </trkpt>
      <trkpt lat="50.77165" lon="2.75063">
        <ele>79.1</ele>
      </trkpt>
      <trkpt lat="50.77201" lon="2.75133">
        <ele>77.2</ele>
      </trkpt>
      <trkpt lat="50.77221" lon="2.752">
        <ele>75.6</ele>
      </trkpt>
      <trkpt lat="50.77225" lon="2.75247">
        <ele>74.1</ele>
      </trkpt>
      <trkpt lat="50.77233" lon="2.75314">
        <ele>72.9</ele>
      </trkpt>
      <trkpt lat="50.77255" lon="2.754">
        <ele>69.8</ele>
      </trkpt>
      <trkpt lat="50.77262" lon="2.75451">
        <ele>68.9</ele>
      </trkpt>
      <trkpt lat="50.77272" lon="2.75504">
        <ele>67.2</ele>
      </trkpt>
      <trkpt lat="50.77293" lon="2.7558">
        <ele>66.1</ele>
      </trkpt>
      <trkpt lat="50.77325" lon="2.75673">
        <ele>62.5</ele>
      </trkpt>
      <trkpt lat="50.77328" lon="2.75741">
        <ele>61</ele>
      </trkpt>
      <trkpt lat="50.77327" lon="2.75808">
        <ele>63</ele>
      </trkpt>
      <trkpt lat="50.77341" lon="2.75835">
        <ele>60</ele>
      </trkpt>
      <trkpt lat="50.77383" lon="2.75873">
        <ele>63</ele>
      </trkpt>
      <trkpt lat="50.77415" lon="2.75919">
        <ele>68</ele>
      </trkpt>
      <trkpt lat="50.7742" lon="2.75935">
        <ele>68.9</ele>
      </trkpt>
      <trkpt lat="50.77431" lon="2.75948">
        <ele>70.7</ele>
      </trkpt>
      <trkpt lat="50.77494" lon="2.75976">
        <ele>76.7</ele>
      </trkpt>
      <trkpt lat="50.77553" lon="2.76006">
        <ele>76.3</ele>
      </trkpt>
      <trkpt lat="50.77518" lon="2.76133">
        <ele>83.3</ele>
      </trkpt>
      <trkpt lat="50.77486" lon="2.76248">
        <ele>77.2</ele>
      </trkpt>
      <trkpt lat="50.77386" lon="2.76265">
        <ele>75.4</ele>
      </trkpt>
      <trkpt lat="50.77368" lon="2.76311">
        <ele>68.9</ele>
      </trkpt>
      <trkpt lat="50.77329" lon="2.76405">
        <ele>65</ele>
      </trkpt>
      <trkpt lat="50.77181" lon="2.76273">
        <ele>55.4</ele>
      </trkpt>
      <trkpt lat="50.77135" lon="2.76373">
        <ele>59.8</ele>
      </trkpt>
      <trkpt lat="50.77087" lon="2.76465">
        <ele>57.3</ele>
      </trkpt>
      <trkpt lat="50.77047" lon="2.76571">
        <ele>49.1</ele>
      </trkpt>
      <trkpt lat="50.76976" lon="2.76784">
        <ele>51.1</ele>
      </trkpt>
      <trkpt lat="50.76946" lon="2.7688">
        <ele>50.6</ele>
      </trkpt>
      <trkpt lat="50.76947" lon="2.76906">
        <ele>47</ele>
      </trkpt>
      <trkpt lat="50.76959" lon="2.76922">
        <ele>51.7</ele>
      </trkpt>
      <trkpt lat="50.76974" lon="2.76962">
        <ele>53.2</ele>
      </trkpt>
      <trkpt lat="50.77009" lon="2.77069">
        <ele>58.8</ele>
      </trkpt>
      <trkpt lat="50.77042" lon="2.77158">
        <ele>62.7</ele>
      </trkpt>
      <trkpt lat="50.77057" lon="2.77237">
        <ele>66</ele>
      </trkpt>
      <trkpt lat="50.77068" lon="2.77346">
        <ele>72.2</ele>
      </trkpt>
      <trkpt lat="50.77079" lon="2.77392">
        <ele>74.3</ele>
      </trkpt>
      <trkpt lat="50.77093" lon="2.77436">
        <ele>76.2</ele>
      </trkpt>
      <trkpt lat="50.77125" lon="2.77526">
        <ele>78</ele>
      </trkpt>
      <trkpt lat="50.77158" lon="2.77707">
        <ele>72.5</ele>
      </trkpt>
      <trkpt lat="50.77116" lon="2.77735">
        <ele>75.1</ele>
      </trkpt>
      <trkpt lat="50.77086" lon="2.77758">
        <ele>70.8</ele>
      </trkpt>
      <trkpt lat="50.77042" lon="2.77756">
        <ele>73.8</ele>
      </trkpt>
      <trkpt lat="50.76988" lon="2.77764">
        <ele>69.4</ele>
      </trkpt>
      <trkpt lat="50.76989" lon="2.77772">
        <ele>72.3</ele>
      </trkpt>
      <trkpt lat="50.76929" lon="2.77767">
        <ele>72.4</ele>
      </trkpt>
      <trkpt lat="50.76864" lon="2.77732">
        <ele>72.1</ele>
      </trkpt>
      <trkpt lat="50.76804" lon="2.77711">
        <ele>70.4</ele>
      </trkpt>
      <trkpt lat="50.76643" lon="2.77695">
        <ele>58.4</ele>
      </trkpt>
      <trkpt lat="50.76615" lon="2.77694">
        <ele>56.3</ele>
      </trkpt>
      <trkpt lat="50.76573" lon="2.77678">
        <ele>54.5</ele>
      </trkpt>
      <trkpt lat="50.76551" lon="2.77676">
        <ele>46.7</ele>
      </trkpt>
      <trkpt lat="50.7647" lon="2.7774">
        <ele>41.5</ele>
      </trkpt>
      <trkpt lat="50.76516" lon="2.77987">
        <ele>51.7</ele>
      </trkpt>
      <trkpt lat="50.76536" lon="2.78187">
        <ele>57.6</ele>
      </trkpt>
      <trkpt lat="50.76559" lon="2.78269">
        <ele>58.5</ele>
      </trkpt>
      <trkpt lat="50.76587" lon="2.78299">
        <ele>53.6</ele>
      </trkpt>
      <trkpt lat="50.76585" lon="2.78326">
        <ele>60</ele>
      </trkpt>
      <trkpt lat="50.76605" lon="2.78467">
        <ele>58</ele>
      </trkpt>
      <trkpt lat="50.76599" lon="2.78557">
        <ele>56.9</ele>
      </trkpt>
      <trkpt lat="50.76587" lon="2.78645">
        <ele>55.1</ele>
      </trkpt>
      <trkpt lat="50.76406" lon="2.80339">
        <ele>42.5</ele>
      </trkpt>
      <trkpt lat="50.76328" lon="2.80333">
        <ele>38.8</ele>
      </trkpt>
      <trkpt lat="50.76264" lon="2.80328">
        <ele>43.4</ele>
      </trkpt>
      <trkpt lat="50.76163" lon="2.8038">
        <ele>33.9</ele>
      </trkpt>
      <trkpt lat="50.75975" lon="2.80448">
        <ele>31.3</ele>
      </trkpt>
      <trkpt lat="50.75954" lon="2.80467">
        <ele>35</ele>
      </trkpt>
      <trkpt lat="50.75946" lon="2.80514">
        <ele>35</ele>
      </trkpt>
      <trkpt lat="50.75935" lon="2.80546">
        <ele>31.8</ele>
      </trkpt>
      <trkpt lat="50.75808" lon="2.80568">
        <ele>35</ele>
      </trkpt>
      <trkpt lat="50.75696" lon="2.8059">
        <ele>39.5</ele>
      </trkpt>
      <trkpt lat="50.75687" lon="2.80657">
        <ele>39.5</ele>
      </trkpt>
      <trkpt lat="50.7563" lon="2.80812">
        <ele>40.6</ele>
      </trkpt>
      <trkpt lat="50.75605" lon="2.80863">
        <ele>41.4</ele>
      </trkpt>
      <trkpt lat="50.75544" lon="2.80937">
        <ele>43.5</ele>
      </trkpt>
      <trkpt lat="50.75462" lon="2.81068">
        <ele>45.2</ele>
      </trkpt>
      <trkpt lat="50.75418" lon="2.81141">
        <ele>45</ele>
      </trkpt>
      <trkpt lat="50.75379" lon="2.81187">
        <ele>44.8</ele>
      </trkpt>
      <trkpt lat="50.75343" lon="2.81201">
        <ele>44.5</ele>
      </trkpt>
      <trkpt lat="50.75307" lon="2.81225">
        <ele>43.1</ele>
      </trkpt>
      <trkpt lat="50.75233" lon="2.81127">
        <ele>42.8</ele>
      </trkpt>
      <trkpt lat="50.75193" lon="2.81085">
        <ele>42.9</ele>
      </trkpt>
      <trkpt lat="50.75175" lon="2.81075">
        <ele>42.3</ele>
      </trkpt>
      <trkpt lat="50.75157" lon="2.81083">
        <ele>40.1</ele>
      </trkpt>
      <trkpt lat="50.75153" lon="2.8111">
        <ele>41.6</ele>
      </trkpt>
      <trkpt lat="50.75089" lon="2.81245">
        <ele>40</ele>
      </trkpt>
      <trkpt lat="50.75043" lon="2.81368">
        <ele>45.3</ele>
      </trkpt>
      <trkpt lat="50.75022" lon="2.81436">
        <ele>49.8</ele>
      </trkpt>
      <trkpt lat="50.75005" lon="2.81505">
        <ele>47.4</ele>
      </trkpt>
      <trkpt lat="50.74985" lon="2.81604">
        <ele>56.9</ele>
      </trkpt>
      <trkpt lat="50.74976" lon="2.8165">
        <ele>58.4</ele>
      </trkpt>
      <trkpt lat="50.74988" lon="2.81711">
        <ele>60</ele>
      </trkpt>
      <trkpt lat="50.74956" lon="2.81874">
        <ele>65.7</ele>
      </trkpt>
      <trkpt lat="50.74957" lon="2.82043">
        <ele>65.5</ele>
      </trkpt>
      <trkpt lat="50.74957" lon="2.82133">
        <ele>64.7</ele>
      </trkpt>
      <trkpt lat="50.7495" lon="2.82194">
        <ele>62.3</ele>
      </trkpt>
      <trkpt lat="50.74986" lon="2.82206">
        <ele>61.5</ele>
      </trkpt>
      <trkpt lat="50.75072" lon="2.82208">
        <ele>59.4</ele>
      </trkpt>
      <trkpt lat="50.75086" lon="2.82218">
        <ele>58.9</ele>
      </trkpt>
      <trkpt lat="50.75132" lon="2.8221">
        <ele>56.3</ele>
      </trkpt>
      <trkpt lat="50.75203" lon="2.82339">
        <ele>53.4</ele>
      </trkpt>
      <trkpt lat="50.7506" lon="2.82497">
        <ele>51.1</ele>
      </trkpt>
      <trkpt lat="50.74991" lon="2.82503">
        <ele>53.9</ele>
      </trkpt>
      <trkpt lat="50.74956" lon="2.82509">
        <ele>54.1</ele>
      </trkpt>
      <trkpt lat="50.74933" lon="2.82536">
        <ele>51.8</ele>
      </trkpt>
      <trkpt lat="50.75007" lon="2.82625">
        <ele>49.5</ele>
      </trkpt>
      <trkpt lat="50.75041" lon="2.82641">
        <ele>47.6</ele>
      </trkpt>
      <trkpt lat="50.75145" lon="2.82676">
        <ele>45.9</ele>
      </trkpt>
      <trkpt lat="50.75125" lon="2.82686">
        <ele>46.2</ele>
      </trkpt>
      <trkpt lat="50.75129" lon="2.82713">
        <ele>44.1</ele>
        <time>2020-09-13T06:51:12Z</time>
      </trkpt>
      <trkpt lat="50.75091" lon="2.82776">
        <ele>45.6</ele>
        <time>2020-09-13T06:50:50Z</time>
      </trkpt>
      <trkpt lat="50.75059" lon="2.82836">
        <ele>43.8</ele>
      </trkpt>
      <trkpt lat="50.75032" lon="2.82884">
        <ele>55.002026</ele>
        <time>2020-09-13T06:50:04Z</time>
      </trkpt>
      <trkpt lat="50.74972" lon="2.82982">
        <ele>53.5</ele>
        <time>2020-09-13T06:49:44Z</time>
      </trkpt>
      <trkpt lat="50.74944" lon="2.83017">
        <ele>52</ele>
      </trkpt>
      <trkpt lat="50.74918" lon="2.83056">
        <ele>59.3</ele>
        <time>2020-09-13T06:49:26Z</time>
      </trkpt>
      <trkpt lat="50.74839" lon="2.83149">
        <ele>63.5</ele>
        <time>2020-09-13T06:49:02Z</time>
      </trkpt>
      <trkpt lat="50.74824" lon="2.83108">
        <ele>63.3</ele>
      </trkpt>
      <trkpt lat="50.74797" lon="2.83128">
        <ele>58.883705</ele>
        <time>2020-09-13T06:48:38Z</time>
      </trkpt>
      <trkpt lat="50.74724" lon="2.83157">
        <ele>60.3</ele>
        <time>2020-09-13T06:48:14Z</time>
      </trkpt>
      <trkpt lat="50.74674" lon="2.83183">
        <ele>58.8</ele>
        <time>2020-09-13T06:48:00Z</time>
      </trkpt>
      <trkpt lat="50.74637" lon="2.83207">
        <ele>61.9</ele>
      </trkpt>
      <trkpt lat="50.7459" lon="2.83244">
        <ele>49.756115</ele>
        <time>2020-09-13T06:47:36Z</time>
      </trkpt>
      <trkpt lat="50.7455" lon="2.83267">
        <ele>50.1</ele>
        <time>2020-09-13T06:47:18Z</time>
      </trkpt>
      <trkpt lat="50.7452" lon="2.83285">
        <ele>54.1</ele>
      </trkpt>
      <trkpt lat="50.74475" lon="2.83318">
        <ele>42.181435</ele>
        <time>2020-09-13T06:46:54Z</time>
      </trkpt>
      <trkpt lat="50.74458" lon="2.83326">
        <ele>51.1</ele>
      </trkpt>
      <trkpt lat="50.74432" lon="2.83345">
        <ele>39.929283</ele>
        <time>2020-09-13T06:46:40Z</time>
      </trkpt>
      <trkpt lat="50.74409" lon="2.83355">
        <ele>48.6</ele>
      </trkpt>
      <trkpt lat="50.74366" lon="2.83395">
        <ele>40.5</ele>
        <time>2020-09-13T06:46:16Z</time>
      </trkpt>
      <trkpt lat="50.74319" lon="2.83442">
        <ele>44</ele>
      </trkpt>
      <trkpt lat="50.74277" lon="2.83487">
        <ele>36.1</ele>
        <time>2020-09-13T06:45:52Z</time>
      </trkpt>
      <trkpt lat="50.74237" lon="2.83539">
        <ele>38.8</ele>
      </trkpt>
      <trkpt lat="50.74197" lon="2.83609">
        <ele>34.2</ele>
        <time>2020-09-13T06:45:28Z</time>
      </trkpt>
      <trkpt lat="50.74126" lon="2.83698">
        <ele>32.1</ele>
        <time>2020-09-13T06:45:08Z</time>
      </trkpt>
      <trkpt lat="50.74073" lon="2.83746">
        <ele>29.8</ele>
        <time>2020-09-13T06:44:50Z</time>
      </trkpt>
      <trkpt lat="50.7403" lon="2.83786">
        <ele>32.1</ele>
      </trkpt>
      <trkpt lat="50.73995" lon="2.83828">
        <ele>26</ele>
        <time>2020-09-13T06:44:30Z</time>
      </trkpt>
      <trkpt lat="50.73957" lon="2.83868">
        <ele>29.1</ele>
      </trkpt>
      <trkpt lat="50.73921" lon="2.83908">
        <ele>22.3</ele>
        <time>2020-09-13T06:44:08Z</time>
      </trkpt>
      <trkpt lat="50.73862" lon="2.83968">
        <ele>24.2</ele>
      </trkpt>
      <trkpt lat="50.73803" lon="2.84031">
        <ele>19.8</ele>
        <time>2020-09-13T06:43:44Z</time>
      </trkpt>
      <trkpt lat="50.73743" lon="2.84089">
        <ele>22.8</ele>
      </trkpt>
      <trkpt lat="50.73684" lon="2.84136">
        <ele>19.4</ele>
        <time>2020-09-13T06:43:20Z</time>
      </trkpt>
      <trkpt lat="50.73615" lon="2.84188">
        <ele>18.4</ele>
        <time>2020-09-13T06:43:06Z</time>
      </trkpt>
      <trkpt lat="50.73561" lon="2.84227">
        <ele>21</ele>
      </trkpt>
      <trkpt lat="50.735" lon="2.84282">
        <ele>18</ele>
        <time>2020-09-13T06:42:42Z</time>
      </trkpt>
      <trkpt lat="50.73441" lon="2.84329">
        <ele>20.3</ele>
      </trkpt>
      <trkpt lat="50.7338" lon="2.84371">
        <ele>19.2</ele>
        <time>2020-09-13T06:42:22Z</time>
      </trkpt>
      <trkpt lat="50.73325" lon="2.84413">
        <ele>21</ele>
      </trkpt>
      <trkpt lat="50.73258" lon="2.84466">
        <ele>18.9</ele>
        <time>2020-09-13T06:41:58Z</time>
      </trkpt>
      <trkpt lat="50.73188" lon="2.84524">
        <ele>18.5</ele>
        <time>2020-09-13T06:41:44Z</time>
      </trkpt>
      <trkpt lat="50.73138" lon="2.84563">
        <ele>21</ele>
      </trkpt>
      <trkpt lat="50.73075" lon="2.84617">
        <ele>17.5</ele>
        <time>2020-09-13T06:41:20Z</time>
      </trkpt>
      <trkpt lat="50.73045" lon="2.84648">
        <ele>20</ele>
      </trkpt>
      <trkpt lat="50.73013" lon="2.84697">
        <ele>20</ele>
      </trkpt>
      <trkpt lat="50.73001" lon="2.84707">
        <ele>20</ele>
      </trkpt>
      <trkpt lat="50.72997" lon="2.84733">
        <ele>16</ele>
        <time>2020-09-13T06:40:56Z</time>
      </trkpt>
      <trkpt lat="50.7292" lon="2.84821">
        <ele>18.618814</ele>
        <time>2020-09-13T06:40:32Z</time>
      </trkpt>
      <trkpt lat="50.72866" lon="2.84891">
        <ele>18.883543</ele>
        <time>2020-09-13T06:40:14Z</time>
      </trkpt>
      <trkpt lat="50.72844" lon="2.84915">
        <ele>20</ele>
      </trkpt>
      <trkpt lat="50.72822" lon="2.84953">
        <ele>17.4</ele>
        <time>2020-09-13T06:39:40Z</time>
      </trkpt>
      <trkpt lat="50.72832" lon="2.85031">
        <ele>17</ele>
        <time>2020-09-13T06:39:22Z</time>
      </trkpt>
      <trkpt lat="50.72821" lon="2.85089">
        <ele>20</ele>
      </trkpt>
      <trkpt lat="50.72796" lon="2.85119">
        <ele>18.169508</ele>
        <time>2020-09-13T06:38:58Z</time>
      </trkpt>
      <trkpt lat="50.72733" lon="2.85183">
        <ele>17.999998</ele>
        <time>2020-09-13T06:38:34Z</time>
      </trkpt>
      <trkpt lat="50.72654" lon="2.85246">
        <ele>17.999998</ele>
        <time>2020-09-13T06:38:10Z</time>
      </trkpt>
      <trkpt lat="50.72604" lon="2.85279">
        <ele>17.999998</ele>
        <time>2020-09-13T06:37:56Z</time>
      </trkpt>
      <trkpt lat="50.72517" lon="2.85343">
        <ele>17.999998</ele>
        <time>2020-09-13T06:37:32Z</time>
      </trkpt>
      <trkpt lat="50.72476" lon="2.85378">
        <ele>17.3</ele>
        <time>2020-09-13T06:37:14Z</time>
      </trkpt>
      <trkpt lat="50.72549" lon="2.85629">
        <ele>16.8</ele>
        <time>2020-09-13T06:36:50Z</time>
      </trkpt>
      <trkpt lat="50.72571" lon="2.85752">
        <ele>17</ele>
        <time>2020-09-13T06:36:36Z</time>
      </trkpt>
      <trkpt lat="50.7258" lon="2.85797">
        <ele>20</ele>
      </trkpt>
      <trkpt lat="50.72495" lon="2.85839">
        <ele>17.999998</ele>
        <time>2020-09-13T06:36:12Z</time>
      </trkpt>
      <trkpt lat="50.72361" lon="2.85911">
        <ele>17.999998</ele>
        <time>2020-09-13T06:35:48Z</time>
      </trkpt>
      <trkpt lat="50.72253" lon="2.85971">
        <ele>20</ele>
      </trkpt>
      <trkpt lat="50.72247" lon="2.85987">
        <ele>17.9</ele>
        <time>2020-09-13T06:35:24Z</time>
      </trkpt>
      <trkpt lat="50.72281" lon="2.86123">
        <ele>16.1</ele>
        <time>2020-09-13T06:35:04Z</time>
      </trkpt>
      <trkpt lat="50.72268" lon="2.86135">
        <ele>20</ele>
      </trkpt>
      <trkpt lat="50.72192" lon="2.86177">
        <ele>17.999998</ele>
        <time>2020-09-13T06:34:50Z</time>
      </trkpt>
      <trkpt lat="50.72074" lon="2.86237">
        <ele>19.7</ele>
      </trkpt>
      <trkpt lat="50.72072" lon="2.86267">
        <ele>17</ele>
        <time>2020-09-13T06:34:26Z</time>
      </trkpt>
      <trkpt lat="50.72025" lon="2.86328">
        <ele>19.3</ele>
      </trkpt>
      <trkpt lat="50.7197" lon="2.86386">
        <ele>16</ele>
        <time>2020-09-13T06:34:04Z</time>
      </trkpt>
      <trkpt lat="50.71937" lon="2.86418">
        <ele>20</ele>
      </trkpt>
      <trkpt lat="50.71891" lon="2.86447">
        <ele>20</ele>
      </trkpt>
      <trkpt lat="50.71853" lon="2.86521">
        <ele>17.999998</ele>
        <time>2020-09-13T06:33:40Z</time>
      </trkpt>
      <trkpt lat="50.71784" lon="2.86552">
        <ele>20</ele>
      </trkpt>
      <trkpt lat="50.71755" lon="2.86567">
        <ele>20</ele>
      </trkpt>
      <trkpt lat="50.71725" lon="2.86599">
        <ele>16.9</ele>
        <time>2020-09-13T06:33:16Z</time>
      </trkpt>
      <trkpt lat="50.71685" lon="2.86623">
        <ele>20</ele>
      </trkpt>
      <trkpt lat="50.71664" lon="2.86641">
        <ele>20</ele>
      </trkpt>
      <trkpt lat="50.71647" lon="2.86663">
        <ele>17</ele>
        <time>2020-09-13T06:33:02Z</time>
      </trkpt>
      <trkpt lat="50.71621" lon="2.86692">
        <ele>20</ele>
      </trkpt>
      <trkpt lat="50.71592" lon="2.86741">
        <ele>20</ele>
      </trkpt>
      <trkpt lat="50.71617" lon="2.86788">
        <ele>19.5</ele>
      </trkpt>
      <trkpt lat="50.71629" lon="2.86822">
        <ele>16.6</ele>
        <time>2020-09-13T06:32:38Z</time>
      </trkpt>
      <trkpt lat="50.71643" lon="2.86892">
        <ele>20</ele>
      </trkpt>
      <trkpt lat="50.71597" lon="2.86964">
        <ele>16.1</ele>
        <time>2020-09-13T06:32:18Z</time>
      </trkpt>
      <trkpt lat="50.7153" lon="2.87085">
        <ele>19.1</ele>
      </trkpt>
      <trkpt lat="50.71497" lon="2.87113">
        <ele>17.999998</ele>
        <time>2020-09-13T06:31:54Z</time>
      </trkpt>
      <trkpt lat="50.71478" lon="2.87125">
        <ele>19</ele>
      </trkpt>
      <trkpt lat="50.71449" lon="2.87168">
        <ele>19.2</ele>
      </trkpt>
      <trkpt lat="50.714" lon="2.87271">
        <ele>16.8</ele>
        <time>2020-09-13T06:31:30Z</time>
      </trkpt>
      <trkpt lat="50.71377" lon="2.87327">
        <ele>20.1</ele>
      </trkpt>
      <trkpt lat="50.71357" lon="2.87383">
        <ele>16</ele>
        <time>2020-09-13T06:31:16Z</time>
      </trkpt>
      <trkpt lat="50.71321" lon="2.87463">
        <ele>20</ele>
      </trkpt>
      <trkpt lat="50.71267" lon="2.87528">
        <ele>16.2</ele>
        <time>2020-09-13T06:30:52Z</time>
      </trkpt>
      <trkpt lat="50.71189" lon="2.87628">
        <ele>20</ele>
      </trkpt>
      <trkpt lat="50.71109" lon="2.87744">
        <ele>16</ele>
        <time>2020-09-13T06:30:28Z</time>
      </trkpt>
      <trkpt lat="50.71022" lon="2.8787">
        <ele>19.5</ele>
      </trkpt>
      <trkpt lat="50.70989" lon="2.87913">
        <ele>20</ele>
      </trkpt>
      <trkpt lat="50.70954" lon="2.87942">
        <ele>19.4</ele>
        <time>2020-09-13T06:30:10Z</time>
      </trkpt>
      <trkpt lat="50.70945" lon="2.87923">
        <ele>19.6</ele>
        <time>2020-09-13T06:29:56Z</time>
      </trkpt>
      <trkpt lat="50.70738" lon="2.88043">
        <ele>14.4</ele>
        <time>2020-09-13T06:29:32Z</time>
      </trkpt>
      <trkpt lat="50.70533" lon="2.88179">
        <ele>16</ele>
      </trkpt>
      <trkpt lat="50.7044" lon="2.88241">
        <ele>17.1</ele>
      </trkpt>
      <trkpt lat="50.70343" lon="2.88319">
        <ele>16.8</ele>
        <time>2020-09-13T06:29:08Z</time>
      </trkpt>
      <trkpt lat="50.70169" lon="2.88436">
        <ele>20</ele>
      </trkpt>
      <trkpt lat="50.70078" lon="2.88456">
        <ele>19.4</ele>
      </trkpt>
      <trkpt lat="50.70003" lon="2.88464">
        <ele>18.8</ele>
      </trkpt>
      <trkpt lat="50.69707" lon="2.88368">
        <ele>18.6</ele>
      </trkpt>
      <trkpt lat="50.69651" lon="2.8826">
        <ele>17.2</ele>
      </trkpt>
      <trkpt lat="50.69419" lon="2.88104">
        <ele>19.4</ele>
      </trkpt>
      <trkpt lat="50.69379" lon="2.88262">
        <ele>16.7</ele>
      </trkpt>
      <trkpt lat="50.69313" lon="2.88674">
        <ele>16.3</ele>
      </trkpt>
      <trkpt lat="50.69264" lon="2.89028">
        <ele>16.5</ele>
      </trkpt>
      <trkpt lat="50.69258" lon="2.89254">
        <ele>15.7</ele>
      </trkpt>
      <trkpt lat="50.69267" lon="2.89398">
        <ele>17.2</ele>
      </trkpt>
      <trkpt lat="50.69287" lon="2.89445">
        <ele>16</ele>
      </trkpt>
      <trkpt lat="50.69322" lon="2.89655">
        <ele>16</ele>
      </trkpt>
      <trkpt lat="50.69339" lon="2.8982">
        <ele>16.2</ele>
      </trkpt>
      <trkpt lat="50.6935" lon="2.89998">
        <ele>14.9</ele>
      </trkpt>
      <trkpt lat="50.69343" lon="2.90131">
        <ele>15.6</ele>
      </trkpt>
      <trkpt lat="50.6935" lon="2.9034">
        <ele>15.6</ele>
      </trkpt>
      <trkpt lat="50.69371" lon="2.90453">
        <ele>14.9</ele>
      </trkpt>
      <trkpt lat="50.69398" lon="2.90558">
        <ele>14.1</ele>
      </trkpt>
      <trkpt lat="50.69485" lon="2.90728">
        <ele>14.7</ele>
      </trkpt>
      <trkpt lat="50.69586" lon="2.90835">
        <ele>15.2</ele>
      </trkpt>
      <trkpt lat="50.69636" lon="2.90784">
        <ele>16</ele>
      </trkpt>
      <trkpt lat="50.69661" lon="2.90762">
        <ele>13.6</ele>
        <time>2020-09-13T06:09:58Z</time>
      </trkpt>
      <trkpt lat="50.69571" lon="2.90911">
        <ele>18.114655</ele>
        <time>2020-09-13T06:09:34Z</time>
      </trkpt>
      <trkpt lat="50.69486" lon="2.91059">
        <ele>19.703588</ele>
        <time>2020-09-13T06:09:10Z</time>
      </trkpt>
      <trkpt lat="50.69465" lon="2.9117">
        <ele>19.946056</ele>
        <time>2020-09-13T06:08:56Z</time>
      </trkpt>
      <trkpt lat="50.69391" lon="2.91306">
        <ele>19.557329</ele>
        <time>2020-09-13T06:08:32Z</time>
      </trkpt>
      <trkpt lat="50.69334" lon="2.91398">
        <ele>19.18877</ele>
        <time>2020-09-13T06:08:14Z</time>
      </trkpt>
      <trkpt lat="50.69239" lon="2.91547">
        <ele>18.999998</ele>
        <time>2020-09-13T06:07:50Z</time>
      </trkpt>
      <trkpt lat="50.69148" lon="2.91625">
        <ele>18.999912</ele>
        <time>2020-09-13T06:07:26Z</time>
      </trkpt>
      <trkpt lat="50.69087" lon="2.91643">
        <ele>18.997519</ele>
        <time>2020-09-13T06:07:12Z</time>
      </trkpt>
      <trkpt lat="50.69001" lon="2.91747">
        <ele>18.883862</ele>
        <time>2020-09-13T06:06:48Z</time>
      </trkpt>
      <trkpt lat="50.68906" lon="2.91665">
        <ele>18.631634</ele>
        <time>2020-09-13T06:06:24Z</time>
      </trkpt>
      <trkpt lat="50.68863" lon="2.91848">
        <ele>18.490591</ele>
        <time>2020-09-13T06:06:00Z</time>
      </trkpt>
      <trkpt lat="50.68852" lon="2.91924">
        <ele>18.045416</ele>
        <time>2020-09-13T06:05:01Z</time>
      </trkpt>
      <trkpt lat="50.6882" lon="2.92022">
        <ele>18.000004</ele>
        <time>2020-09-13T06:04:43Z</time>
      </trkpt>
      <trkpt lat="50.6876" lon="2.92176">
        <ele>18.000004</ele>
        <time>2020-09-13T06:03:12Z</time>
      </trkpt>
      <trkpt lat="50.68679" lon="2.92352">
        <ele>18.000286</ele>
        <time>2020-09-13T06:02:48Z</time>
      </trkpt>
      <trkpt lat="50.68593" lon="2.92541">
        <ele>18.099552</ele>
        <time>2020-09-13T06:02:24Z</time>
      </trkpt>
      <trkpt lat="50.68535" lon="2.9265">
        <ele>18.417192</ele>
        <time>2020-09-13T06:02:10Z</time>
      </trkpt>
      <trkpt lat="50.68437" lon="2.9283">
        <ele>18.862015</ele>
        <time>2020-09-13T06:01:46Z</time>
      </trkpt>
      <trkpt lat="50.68349" lon="2.92967">
        <ele>18.999996</ele>
        <time>2020-09-13T06:01:26Z</time>
      </trkpt>
      <trkpt lat="50.68238" lon="2.93118">
        <ele>17.4</ele>
        <time>2020-09-13T06:01:02Z</time>
      </trkpt>
      <trkpt lat="50.68144" lon="2.93279">
        <ele>18.999998</ele>
        <time>2020-09-13T06:00:40Z</time>
      </trkpt>
      <trkpt lat="50.68074" lon="2.93389">
        <ele>18.2</ele>
        <time>2020-09-13T06:00:24Z</time>
      </trkpt>
      <trkpt lat="50.68045" lon="2.9343">
        <ele>21</ele>
      </trkpt>
      <trkpt lat="50.68008" lon="2.93449">
        <ele>20.9</ele>
      </trkpt>
      <trkpt lat="50.67972" lon="2.93526">
        <ele>18.3</ele>
        <time>2020-09-13T06:00:02Z</time>
      </trkpt>
      <trkpt lat="50.67954" lon="2.93572">
        <ele>21</ele>
      </trkpt>
      <trkpt lat="50.6793" lon="2.93618">
        <ele>21.1</ele>
      </trkpt>
      <trkpt lat="50.67872" lon="2.93706">
        <ele>18.999071</ele>
        <time>2020-09-13T05:59:37Z</time>
      </trkpt>
      <trkpt lat="50.67817" lon="2.93788">
        <ele>21</ele>
      </trkpt>
      <trkpt lat="50.67773" lon="2.93872">
        <ele>18.807178</ele>
        <time>2020-09-13T05:59:13Z</time>
      </trkpt>
      <trkpt lat="50.67715" lon="2.93967">
        <ele>18.48313</ele>
        <time>2020-09-13T05:58:59Z</time>
      </trkpt>
      <trkpt lat="50.67638" lon="2.94114">
        <ele>18.182034</ele>
        <time>2020-09-13T05:58:39Z</time>
      </trkpt>
      <trkpt lat="50.67593" lon="2.94196">
        <ele>20</ele>
      </trkpt>
      <trkpt lat="50.67548" lon="2.94296">
        <ele>18.529011</ele>
        <time>2020-09-13T05:58:15Z</time>
      </trkpt>
      <trkpt lat="50.675" lon="2.94386">
        <ele>21</ele>
      </trkpt>
      <trkpt lat="50.67463" lon="2.94482">
        <ele>19.28133</ele>
        <time>2020-09-13T05:57:51Z</time>
      </trkpt>
      <trkpt lat="50.6741" lon="2.94596">
        <ele>21</ele>
      </trkpt>
      <trkpt lat="50.67385" lon="2.94624">
        <ele>21</ele>
      </trkpt>
      <trkpt lat="50.67363" lon="2.94643">
        <ele>19.786541</ele>
        <time>2020-09-13T05:57:27Z</time>
      </trkpt>
      <trkpt lat="50.67323" lon="2.9467">
        <ele>21</ele>
      </trkpt>
      <trkpt lat="50.67281" lon="2.94709">
        <ele>18</ele>
        <time>2020-09-13T05:57:13Z</time>
      </trkpt>
      <trkpt lat="50.67256" lon="2.94769">
        <ele>20.7</ele>
      </trkpt>
      <trkpt lat="50.67228" lon="2.94813">
        <ele>21</ele>
      </trkpt>
      <trkpt lat="50.67214" lon="2.94845">
        <ele>18.9</ele>
        <time>2020-09-13T05:56:49Z</time>
      </trkpt>
      <trkpt lat="50.67256" lon="2.94878">
        <ele>20.5</ele>
      </trkpt>
      <trkpt lat="50.67286" lon="2.94908">
        <ele>20.8</ele>
      </trkpt>
      <trkpt lat="50.67323" lon="2.94972">
        <ele>19.999928</ele>
        <time>2020-09-13T05:56:31Z</time>
      </trkpt>
      <trkpt lat="50.67408" lon="2.9515">
        <ele>18.7</ele>
        <time>2020-09-13T05:56:07Z</time>
      </trkpt>
      <trkpt lat="50.67445" lon="2.95218">
        <ele>21</ele>
      </trkpt>
      <trkpt lat="50.6739" lon="2.95249">
        <ele>19.127638</ele>
        <time>2020-09-13T05:55:43Z</time>
      </trkpt>
      <trkpt lat="50.67361" lon="2.95263">
        <ele>20</ele>
      </trkpt>
      <trkpt lat="50.6734" lon="2.95294">
        <ele>20.9</ele>
      </trkpt>
      <trkpt lat="50.67329" lon="2.95338">
        <ele>20.8</ele>
      </trkpt>
      <trkpt lat="50.67314" lon="2.95372">
        <ele>17.8</ele>
        <time>2020-09-13T05:55:29Z</time>
      </trkpt>
      <trkpt lat="50.67228" lon="2.95493">
        <ele>18.68895</ele>
        <time>2020-09-13T05:55:05Z</time>
      </trkpt>
      <trkpt lat="50.6717" lon="2.95569">
        <ele>17.2</ele>
      </trkpt>
      <trkpt lat="50.67124" lon="2.95659">
        <ele>17.1</ele>
        <time>2020-09-13T05:54:41Z</time>
      </trkpt>
      <trkpt lat="50.67084" lon="2.95721">
        <ele>20</ele>
      </trkpt>
      <trkpt lat="50.6704" lon="2.95774">
        <ele>19.584641</ele>
        <time>2020-09-13T05:54:23Z</time>
      </trkpt>
      <trkpt lat="50.67001" lon="2.95819">
        <ele>21</ele>
      </trkpt>
      <trkpt lat="50.66975" lon="2.95818">
        <ele>22.3</ele>
      </trkpt>
      <trkpt lat="50.66957" lon="2.95822">
        <ele>21.7</ele>
      </trkpt>
      <trkpt lat="50.66948" lon="2.95886">
        <ele>19.4</ele>
        <time>2020-09-13T05:53:59Z</time>
      </trkpt>
      <trkpt lat="50.66879" lon="2.95973">
        <ele>18.7</ele>
        <time>2020-09-13T05:53:45Z</time>
      </trkpt>
      <trkpt lat="50.66731" lon="2.96134">
        <ele>25.2</ele>
        <time>2020-09-13T05:53:21Z</time>
      </trkpt>
      <trkpt lat="50.6659" lon="2.96283">
        <ele>32.3</ele>
        <time>2020-09-13T05:52:57Z</time>
      </trkpt>
      <trkpt lat="50.66698" lon="2.96472">
        <ele>32</ele>
      </trkpt>
      <trkpt lat="50.6677" lon="2.96596">
        <ele>30.6</ele>
      </trkpt>
      <trkpt lat="50.66783" lon="2.96623">
        <ele>30.4</ele>
      </trkpt>
      <trkpt lat="50.66787" lon="2.96649">
        <ele>30</ele>
        <time>2020-09-13T05:52:33Z</time>
      </trkpt>
      <trkpt lat="50.66772" lon="2.96847">
        <ele>31.1</ele>
      </trkpt>
      <trkpt lat="50.6675" lon="2.97188">
        <ele>35</ele>
        <time>2020-09-13T05:49:27Z</time>
      </trkpt>
      <trkpt lat="50.66742" lon="2.97321">
        <ele>35.1</ele>
        <time>2020-09-13T05:49:02Z</time>
      </trkpt>
      <trkpt lat="50.66725" lon="2.9735">
        <ele>35.2</ele>
      </trkpt>
      <trkpt lat="50.66617" lon="2.97442">
        <ele>35.9</ele>
      </trkpt>
      <trkpt lat="50.66678" lon="2.97605">
        <ele>34.5</ele>
      </trkpt>
      <trkpt lat="50.66663" lon="2.97706">
        <ele>34</ele>
        <time>2020-09-13T05:48:48Z</time>
      </trkpt>
      <trkpt lat="50.66675" lon="2.97716">
        <ele>33.8</ele>
        <time>2020-09-13T05:48:24Z</time>
      </trkpt>
      <trkpt lat="50.66672" lon="2.97747">
        <ele>33.9</ele>
        <time>2020-09-13T05:48:00Z</time>
      </trkpt>
      <trkpt lat="50.66653" lon="2.97845">
        <ele>33.9</ele>
      </trkpt>
      <trkpt lat="50.66642" lon="2.97923">
        <ele>32.9</ele>
        <time>2020-09-13T05:46:40Z</time>
      </trkpt>
      <trkpt lat="50.6662" lon="2.98084">
        <ele>30.5</ele>
        <time>2020-09-13T05:46:16Z</time>
      </trkpt>
      <trkpt lat="50.66599" lon="2.98232">
        <ele>31</ele>
      </trkpt>
      <trkpt lat="50.66592" lon="2.98286">
        <ele>31</ele>
      </trkpt>
      <trkpt lat="50.66606" lon="2.9835">
        <ele>31</ele>
      </trkpt>
      <trkpt lat="50.66592" lon="2.98378">
        <ele>28.9</ele>
        <time>2020-09-13T05:45:52Z</time>
      </trkpt>
      <trkpt lat="50.66609" lon="2.98424">
        <ele>30</ele>
      </trkpt>
      <trkpt lat="50.66606" lon="2.98445">
        <ele>28.5</ele>
        <time>2020-09-13T05:45:38Z</time>
      </trkpt>
      <trkpt lat="50.66595" lon="2.98527">
        <ele>27.7</ele>
      </trkpt>
      <trkpt lat="50.66585" lon="2.98597">
        <ele>26.9</ele>
        <time>2020-09-13T05:45:14Z</time>
      </trkpt>
      <trkpt lat="50.66571" lon="2.98692">
        <ele>26.1</ele>
      </trkpt>
      <trkpt lat="50.66564" lon="2.98722">
        <ele>26.9</ele>
      </trkpt>
      <trkpt lat="50.66524" lon="2.98768">
        <ele>25.8</ele>
      </trkpt>
      <trkpt lat="50.66537" lon="2.98856">
        <ele>25</ele>
        <time>2020-09-13T05:44:50Z</time>
      </trkpt>
      <trkpt lat="50.66578" lon="2.98908">
        <ele>25</ele>
        <time>2020-09-13T05:44:32Z</time>
      </trkpt>
      <trkpt lat="50.66595" lon="2.9899">
        <ele>26.6</ele>
      </trkpt>
      <trkpt lat="50.66633" lon="2.99076">
        <ele>24.999567</ele>
        <time>2020-09-13T05:44:08Z</time>
      </trkpt>
      <trkpt lat="50.66642" lon="2.99099">
        <ele>25.9</ele>
      </trkpt>
      <trkpt lat="50.66595" lon="2.99147">
        <ele>25.5</ele>
        <time>2020-09-13T05:43:54Z</time>
      </trkpt>
      <trkpt lat="50.66582" lon="2.99183">
        <ele>26</ele>
      </trkpt>
      <trkpt lat="50.66568" lon="2.99231">
        <ele>26</ele>
      </trkpt>
      <trkpt lat="50.66572" lon="2.99324">
        <ele>25.9</ele>
      </trkpt>
      <trkpt lat="50.66616" lon="2.99395">
        <ele>25.8</ele>
        <time>2020-09-13T05:43:30Z</time>
      </trkpt>
      <trkpt lat="50.66566" lon="2.99449">
        <ele>25.864094</ele>
        <time>2020-09-13T05:43:06Z</time>
      </trkpt>
      <trkpt lat="50.66504" lon="2.99509">
        <ele>27.8</ele>
      </trkpt>
      <trkpt lat="50.66489" lon="2.99537">
        <ele>28</ele>
      </trkpt>
      <trkpt lat="50.66479" lon="2.99577">
        <ele>26.7</ele>
        <time>2020-09-13T05:42:42Z</time>
      </trkpt>
      <trkpt lat="50.66467" lon="2.99703">
        <ele>27.6</ele>
        <time>2020-09-13T05:42:28Z</time>
      </trkpt>
      <trkpt lat="50.66453" lon="2.99795">
        <ele>28.7</ele>
      </trkpt>
      <trkpt lat="50.66409" lon="2.99823">
        <ele>28</ele>
        <time>2020-09-13T05:42:04Z</time>
      </trkpt>
      <trkpt lat="50.66411" lon="2.9991">
        <ele>29</ele>
      </trkpt>
      <trkpt lat="50.66394" lon="3.00006">
        <ele>28</ele>
        <time>2020-09-13T05:41:44Z</time>
      </trkpt>
      <trkpt lat="50.66371" lon="3.00243">
        <ele>27.936954</ele>
        <time>2020-09-13T05:41:13Z</time>
      </trkpt>
      <trkpt lat="50.66355" lon="3.00319">
        <ele>28.8</ele>
      </trkpt>
      <trkpt lat="50.6632" lon="3.0039">
        <ele>27.943954</ele>
        <time>2020-09-13T05:40:51Z</time>
      </trkpt>
      <trkpt lat="50.66269" lon="3.00494">
        <ele>27.917912</ele>
        <time>2020-09-13T05:40:35Z</time>
      </trkpt>
      <trkpt lat="50.6624" lon="3.00544">
        <ele>30</ele>
      </trkpt>
      <trkpt lat="50.66179" lon="3.0059">
        <ele>27.460943</ele>
        <time>2020-09-13T05:40:13Z</time>
      </trkpt>
      <trkpt lat="50.66071" lon="3.00671">
        <ele>26.773062</ele>
        <time>2020-09-13T05:39:49Z</time>
      </trkpt>
      <trkpt lat="50.65979" lon="3.00736">
        <ele>27.011982</ele>
        <time>2020-09-13T05:39:29Z</time>
      </trkpt>
      <trkpt lat="50.65869" lon="3.00817">
        <ele>28.14941</ele>
        <time>2020-09-13T05:39:05Z</time>
      </trkpt>
      <trkpt lat="50.65908" lon="3.00881">
        <ele>28</ele>
        <time>2020-09-13T05:38:51Z</time>
      </trkpt>
      <trkpt lat="50.65957" lon="3.01038">
        <ele>27</ele>
      </trkpt>
      <trkpt lat="50.66013" lon="3.01143">
        <ele>26</ele>
      </trkpt>
      <trkpt lat="50.66043" lon="3.01208">
        <ele>26</ele>
      </trkpt>
      <trkpt lat="50.65964" lon="3.01244">
        <ele>26</ele>
      </trkpt>
      <trkpt lat="50.65951" lon="3.0127">
        <ele>25.3</ele>
        <time>2020-09-13T05:34:53Z</time>
      </trkpt>
      <trkpt lat="50.66019" lon="3.01487">
        <ele>25</ele>
      </trkpt>
      <trkpt lat="50.66045" lon="3.0159">
        <ele>24.7</ele>
      </trkpt>
      <trkpt lat="50.65977" lon="3.01626">
        <ele>25</ele>
      </trkpt>
      <trkpt lat="50.65922" lon="3.01628">
        <ele>25</ele>
      </trkpt>
      <trkpt lat="50.6584" lon="3.01706">
        <ele>24.7</ele>
      </trkpt>
      <trkpt lat="50.65762" lon="3.0183">
        <ele>24.6</ele>
      </trkpt>
      <trkpt lat="50.65741" lon="3.01931">
        <ele>24.2</ele>
      </trkpt>
      <trkpt lat="50.65724" lon="3.02002">
        <ele>23.9</ele>
      </trkpt>
      <trkpt lat="50.65641" lon="3.02088">
        <ele>23</ele>
      </trkpt>
      <trkpt lat="50.6559" lon="3.02166">
        <ele>25.52071</ele>
        <time>2020-09-13T05:34:35Z</time>
      </trkpt>
      <trkpt lat="50.65548" lon="3.02242">
        <ele>23.8</ele>
      </trkpt>
      <trkpt lat="50.65501" lon="3.02309">
        <ele>26.068106</ele>
        <time>2020-09-13T05:34:11Z</time>
      </trkpt>
      <trkpt lat="50.65453" lon="3.02379">
        <ele>25.80575</ele>
        <time>2020-09-13T05:33:57Z</time>
      </trkpt>
      <trkpt lat="50.65369" lon="3.02488">
        <ele>25.296732</ele>
        <time>2020-09-13T05:33:33Z</time>
      </trkpt>
      <trkpt lat="50.6529" lon="3.02575">
        <ele>26.1</ele>
        <time>2020-09-13T05:33:09Z</time>
      </trkpt>
      <trkpt lat="50.65332" lon="3.02642">
        <ele>24.674215</ele>
        <time>2020-09-13T05:32:45Z</time>
      </trkpt>
      <trkpt lat="50.65342" lon="3.0265">
        <ele>24</ele>
      </trkpt>
      <trkpt lat="50.65347" lon="3.0267">
        <ele>23.9</ele>
      </trkpt>
      <trkpt lat="50.65307" lon="3.02714">
        <ele>24.593918</ele>
        <time>2020-09-13T05:32:25Z</time>
      </trkpt>
      <trkpt lat="50.65277" lon="3.02755">
        <ele>23</ele>
      </trkpt>
      <trkpt lat="50.65254" lon="3.02817">
        <ele>24.8</ele>
        <time>2020-09-13T05:32:07Z</time>
      </trkpt>
      <trkpt lat="50.65233" lon="3.02886">
        <ele>23</ele>
      </trkpt>
      <trkpt lat="50.65214" lon="3.02954">
        <ele>25</ele>
        <time>2020-09-13T05:31:47Z</time>
      </trkpt>
      <trkpt lat="50.65206" lon="3.02989">
        <ele>22</ele>
      </trkpt>
      <trkpt lat="50.6519" lon="3.03004">
        <ele>22.3</ele>
      </trkpt>
      <trkpt lat="50.65174" lon="3.03071">
        <ele>24.3</ele>
        <time>2020-09-13T05:31:23Z</time>
      </trkpt>
      <trkpt lat="50.65144" lon="3.03216">
        <ele>23</ele>
        <time>2020-09-13T05:31:01Z</time>
      </trkpt>
      <trkpt lat="50.65122" lon="3.03326">
        <ele>23.9</ele>
        <time>2020-09-13T05:30:45Z</time>
      </trkpt>
      <trkpt lat="50.65094" lon="3.03449">
        <ele>23.7</ele>
        <time>2020-09-13T05:30:21Z</time>
      </trkpt>
      <trkpt lat="50.65051" lon="3.03585">
        <ele>23</ele>
        <time>2020-09-13T05:29:59Z</time>
      </trkpt>
      <trkpt lat="50.65003" lon="3.03717">
        <ele>23.4</ele>
        <time>2020-09-13T05:29:39Z</time>
      </trkpt>
      <trkpt lat="50.64974" lon="3.0364">
        <ele>20</ele>
      </trkpt>
      <trkpt lat="50.64982" lon="3.03662">
        <ele>23.3</ele>
        <time>2020-09-13T05:29:09Z</time>
      </trkpt>
    </trkseg>
  </trk>
</gpx>